<?xml version="1.0" encoding="UTF-8" standalone="no" ?>
<gpx xmlns="http://www.topografix.com/GPX/1/1" xmlns:xsi="http://www.w3.org/2001/XMLSchema-instance" xsi:schemaLocation="http://www.topografix.com/GPX/1/1 http://www.topografix.com/GPX/1/1/gpx.xsd" version="1.1" creator="VisuGPX - https://www.visugpx.com">
  <metadata>
    <name>MARCILLAC LES VIGNES</name>
    <desc><![CDATA[PARKING CIMETIERE  
sans difficultée méme par temp pluvieux]]></desc>
  </metadata>
  <wpt lat="44.47673" lon="2.46055">
    <ele>280</ele>
  </wpt>
  <wpt lat="44.47668" lon="2.46059">
    <ele>291</ele>
  </wpt>
  <trk>
    <name><![CDATA[MARCILLAC LES VIGNES_1]]></name>
    <trkseg>
      <trkpt lat="44.47673" lon="2.46055">
        <ele>280</ele>
        <time>2009-05-19T12:00:19Z</time>
      </trkpt>
      <trkpt lat="44.47666" lon="2.46065">
        <ele>280</ele>
        <time>2009-05-19T12:01:51Z</time>
      </trkpt>
      <trkpt lat="44.47665" lon="2.46079">
        <ele>280</ele>
        <time>2009-05-19T12:02:01Z</time>
      </trkpt>
      <trkpt lat="44.47668" lon="2.46092">
        <ele>280</ele>
        <time>2009-05-19T12:02:17Z</time>
      </trkpt>
      <trkpt lat="44.47668" lon="2.46105">
        <ele>280</ele>
        <time>2009-05-19T12:02:36Z</time>
      </trkpt>
      <trkpt lat="44.47666" lon="2.46118">
        <ele>280</ele>
        <time>2009-05-19T12:02:56Z</time>
      </trkpt>
      <trkpt lat="44.47675" lon="2.4612">
        <ele>280</ele>
        <time>2009-05-19T12:03:14Z</time>
      </trkpt>
      <trkpt lat="44.47683" lon="2.46111">
        <ele>280</ele>
        <time>2009-05-19T12:03:24Z</time>
      </trkpt>
      <trkpt lat="44.47691" lon="2.46103">
        <ele>280</ele>
        <time>2009-05-19T12:03:34Z</time>
      </trkpt>
      <trkpt lat="44.47698" lon="2.46094">
        <ele>280</ele>
        <time>2009-05-19T12:03:44Z</time>
      </trkpt>
      <trkpt lat="44.47706" lon="2.46084">
        <ele>280</ele>
        <time>2009-05-19T12:03:54Z</time>
      </trkpt>
      <trkpt lat="44.47713" lon="2.46075">
        <ele>280</ele>
        <time>2009-05-19T12:04:04Z</time>
      </trkpt>
      <trkpt lat="44.4772" lon="2.46065">
        <ele>280</ele>
        <time>2009-05-19T12:04:15Z</time>
      </trkpt>
      <trkpt lat="44.47727" lon="2.46056">
        <ele>280</ele>
        <time>2009-05-19T12:04:25Z</time>
      </trkpt>
      <trkpt lat="44.47733" lon="2.46045">
        <ele>280</ele>
        <time>2009-05-19T12:04:35Z</time>
      </trkpt>
      <trkpt lat="44.4774" lon="2.46035">
        <ele>285</ele>
        <time>2009-05-19T12:04:47Z</time>
      </trkpt>
      <trkpt lat="44.47747" lon="2.46025">
        <ele>285</ele>
        <time>2009-05-19T12:04:58Z</time>
      </trkpt>
      <trkpt lat="44.47754" lon="2.46014">
        <ele>285</ele>
        <time>2009-05-19T12:05:09Z</time>
      </trkpt>
      <trkpt lat="44.47759" lon="2.46003">
        <ele>285</ele>
        <time>2009-05-19T12:05:18Z</time>
      </trkpt>
      <trkpt lat="44.47765" lon="2.45991">
        <ele>285</ele>
        <time>2009-05-19T12:05:29Z</time>
      </trkpt>
      <trkpt lat="44.47771" lon="2.45979">
        <ele>285</ele>
        <time>2009-05-19T12:05:39Z</time>
      </trkpt>
      <trkpt lat="44.47776" lon="2.45968">
        <ele>285</ele>
        <time>2009-05-19T12:05:48Z</time>
      </trkpt>
      <trkpt lat="44.47781" lon="2.45957">
        <ele>291</ele>
        <time>2009-05-19T12:05:58Z</time>
      </trkpt>
      <trkpt lat="44.47787" lon="2.45944">
        <ele>291</ele>
        <time>2009-05-19T12:06:09Z</time>
      </trkpt>
      <trkpt lat="44.47793" lon="2.45933">
        <ele>291</ele>
        <time>2009-05-19T12:06:20Z</time>
      </trkpt>
      <trkpt lat="44.47799" lon="2.45922">
        <ele>291</ele>
        <time>2009-05-19T12:06:30Z</time>
      </trkpt>
      <trkpt lat="44.47805" lon="2.45911">
        <ele>291</ele>
        <time>2009-05-19T12:06:40Z</time>
      </trkpt>
      <trkpt lat="44.47812" lon="2.459">
        <ele>291</ele>
        <time>2009-05-19T12:06:50Z</time>
      </trkpt>
      <trkpt lat="44.47819" lon="2.45891">
        <ele>291</ele>
        <time>2009-05-19T12:07:00Z</time>
      </trkpt>
      <trkpt lat="44.47826" lon="2.45882">
        <ele>291</ele>
        <time>2009-05-19T12:07:10Z</time>
      </trkpt>
      <trkpt lat="44.47834" lon="2.45873">
        <ele>291</ele>
        <time>2009-05-19T12:07:21Z</time>
      </trkpt>
      <trkpt lat="44.47841" lon="2.45864">
        <ele>296</ele>
        <time>2009-05-19T12:07:30Z</time>
      </trkpt>
      <trkpt lat="44.47848" lon="2.45855">
        <ele>296</ele>
        <time>2009-05-19T12:07:41Z</time>
      </trkpt>
      <trkpt lat="44.47857" lon="2.45846">
        <ele>296</ele>
        <time>2009-05-19T12:07:52Z</time>
      </trkpt>
      <trkpt lat="44.47865" lon="2.4584">
        <ele>296</ele>
        <time>2009-05-19T12:08:02Z</time>
      </trkpt>
      <trkpt lat="44.47875" lon="2.45834">
        <ele>296</ele>
        <time>2009-05-19T12:08:12Z</time>
      </trkpt>
      <trkpt lat="44.47884" lon="2.45828">
        <ele>296</ele>
        <time>2009-05-19T12:08:23Z</time>
      </trkpt>
      <trkpt lat="44.47893" lon="2.45821">
        <ele>302</ele>
        <time>2009-05-19T12:08:34Z</time>
      </trkpt>
      <trkpt lat="44.47903" lon="2.45819">
        <ele>302</ele>
        <time>2009-05-19T12:08:44Z</time>
      </trkpt>
      <trkpt lat="44.47913" lon="2.45819">
        <ele>302</ele>
        <time>2009-05-19T12:08:54Z</time>
      </trkpt>
      <trkpt lat="44.47922" lon="2.4582">
        <ele>302</ele>
        <time>2009-05-19T12:09:03Z</time>
      </trkpt>
      <trkpt lat="44.47932" lon="2.45823">
        <ele>302</ele>
        <time>2009-05-19T12:09:12Z</time>
      </trkpt>
      <trkpt lat="44.47942" lon="2.45826">
        <ele>302</ele>
        <time>2009-05-19T12:09:21Z</time>
      </trkpt>
      <trkpt lat="44.47952" lon="2.45829">
        <ele>302</ele>
        <time>2009-05-19T12:09:32Z</time>
      </trkpt>
      <trkpt lat="44.47962" lon="2.45829">
        <ele>302</ele>
        <time>2009-05-19T12:09:43Z</time>
      </trkpt>
      <trkpt lat="44.47972" lon="2.4583">
        <ele>302</ele>
        <time>2009-05-19T12:09:53Z</time>
      </trkpt>
      <trkpt lat="44.47981" lon="2.45829">
        <ele>302</ele>
        <time>2009-05-19T12:10:04Z</time>
      </trkpt>
      <trkpt lat="44.47992" lon="2.45826">
        <ele>302</ele>
        <time>2009-05-19T12:10:14Z</time>
      </trkpt>
      <trkpt lat="44.48001" lon="2.45821">
        <ele>308</ele>
        <time>2009-05-19T12:10:24Z</time>
      </trkpt>
      <trkpt lat="44.48011" lon="2.45817">
        <ele>308</ele>
        <time>2009-05-19T12:10:34Z</time>
      </trkpt>
      <trkpt lat="44.4802" lon="2.45812">
        <ele>308</ele>
        <time>2009-05-19T12:10:44Z</time>
      </trkpt>
      <trkpt lat="44.48029" lon="2.45806">
        <ele>308</ele>
        <time>2009-05-19T12:10:54Z</time>
      </trkpt>
      <trkpt lat="44.48037" lon="2.45798">
        <ele>313</ele>
        <time>2009-05-19T12:11:05Z</time>
      </trkpt>
      <trkpt lat="44.48045" lon="2.45789">
        <ele>313</ele>
        <time>2009-05-19T12:11:13Z</time>
      </trkpt>
      <trkpt lat="44.48052" lon="2.45778">
        <ele>313</ele>
        <time>2009-05-19T12:11:23Z</time>
      </trkpt>
      <trkpt lat="44.48059" lon="2.45768">
        <ele>313</ele>
        <time>2009-05-19T12:11:33Z</time>
      </trkpt>
      <trkpt lat="44.48066" lon="2.4576">
        <ele>313</ele>
        <time>2009-05-19T12:11:42Z</time>
      </trkpt>
      <trkpt lat="44.48073" lon="2.4575">
        <ele>313</ele>
        <time>2009-05-19T12:11:51Z</time>
      </trkpt>
      <trkpt lat="44.4808" lon="2.4574">
        <ele>313</ele>
        <time>2009-05-19T12:11:59Z</time>
      </trkpt>
      <trkpt lat="44.48085" lon="2.45729">
        <ele>313</ele>
        <time>2009-05-19T12:12:07Z</time>
      </trkpt>
      <trkpt lat="44.4809" lon="2.45716">
        <ele>313</ele>
        <time>2009-05-19T12:12:16Z</time>
      </trkpt>
      <trkpt lat="44.48092" lon="2.45704">
        <ele>313</ele>
        <time>2009-05-19T12:12:24Z</time>
      </trkpt>
      <trkpt lat="44.48096" lon="2.4569">
        <ele>313</ele>
        <time>2009-05-19T12:12:33Z</time>
      </trkpt>
      <trkpt lat="44.48099" lon="2.45678">
        <ele>313</ele>
        <time>2009-05-19T12:12:42Z</time>
      </trkpt>
      <trkpt lat="44.48104" lon="2.45666">
        <ele>313</ele>
        <time>2009-05-19T12:12:51Z</time>
      </trkpt>
      <trkpt lat="44.48109" lon="2.45654">
        <ele>313</ele>
        <time>2009-05-19T12:13:00Z</time>
      </trkpt>
      <trkpt lat="44.48115" lon="2.45643">
        <ele>313</ele>
        <time>2009-05-19T12:13:09Z</time>
      </trkpt>
      <trkpt lat="44.48123" lon="2.45634">
        <ele>313</ele>
        <time>2009-05-19T12:13:19Z</time>
      </trkpt>
      <trkpt lat="44.48131" lon="2.45626">
        <ele>313</ele>
        <time>2009-05-19T12:13:29Z</time>
      </trkpt>
      <trkpt lat="44.48138" lon="2.45618">
        <ele>313</ele>
        <time>2009-05-19T12:13:39Z</time>
      </trkpt>
      <trkpt lat="44.48147" lon="2.45612">
        <ele>313</ele>
        <time>2009-05-19T12:13:48Z</time>
      </trkpt>
      <trkpt lat="44.48156" lon="2.45608">
        <ele>319</ele>
        <time>2009-05-19T12:13:58Z</time>
      </trkpt>
      <trkpt lat="44.48165" lon="2.45603">
        <ele>319</ele>
        <time>2009-05-19T12:14:07Z</time>
      </trkpt>
      <trkpt lat="44.48174" lon="2.45599">
        <ele>319</ele>
        <time>2009-05-19T12:14:17Z</time>
      </trkpt>
      <trkpt lat="44.48183" lon="2.45593">
        <ele>319</ele>
        <time>2009-05-19T12:14:26Z</time>
      </trkpt>
      <trkpt lat="44.48192" lon="2.4559">
        <ele>319</ele>
        <time>2009-05-19T12:14:35Z</time>
      </trkpt>
      <trkpt lat="44.48201" lon="2.45582">
        <ele>319</ele>
        <time>2009-05-19T12:14:45Z</time>
      </trkpt>
      <trkpt lat="44.4821" lon="2.45579">
        <ele>319</ele>
        <time>2009-05-19T12:14:54Z</time>
      </trkpt>
      <trkpt lat="44.4822" lon="2.45581">
        <ele>319</ele>
        <time>2009-05-19T12:15:04Z</time>
      </trkpt>
      <trkpt lat="44.48217" lon="2.45595">
        <ele>319</ele>
        <time>2009-05-19T12:15:15Z</time>
      </trkpt>
      <trkpt lat="44.4821" lon="2.45605">
        <ele>319</ele>
        <time>2009-05-19T12:15:25Z</time>
      </trkpt>
      <trkpt lat="44.48203" lon="2.45614">
        <ele>325</ele>
        <time>2009-05-19T12:15:35Z</time>
      </trkpt>
      <trkpt lat="44.48196" lon="2.45623">
        <ele>325</ele>
        <time>2009-05-19T12:15:45Z</time>
      </trkpt>
      <trkpt lat="44.48189" lon="2.45633">
        <ele>325</ele>
        <time>2009-05-19T12:15:55Z</time>
      </trkpt>
      <trkpt lat="44.48182" lon="2.45643">
        <ele>330</ele>
        <time>2009-05-19T12:16:05Z</time>
      </trkpt>
      <trkpt lat="44.48175" lon="2.45652">
        <ele>330</ele>
        <time>2009-05-19T12:16:15Z</time>
      </trkpt>
      <trkpt lat="44.48169" lon="2.45663">
        <ele>330</ele>
        <time>2009-05-19T12:16:25Z</time>
      </trkpt>
      <trkpt lat="44.48163" lon="2.45675">
        <ele>330</ele>
        <time>2009-05-19T12:16:34Z</time>
      </trkpt>
      <trkpt lat="44.48159" lon="2.45687">
        <ele>330</ele>
        <time>2009-05-19T12:16:43Z</time>
      </trkpt>
      <trkpt lat="44.4816" lon="2.45701">
        <ele>330</ele>
        <time>2009-05-19T12:16:53Z</time>
      </trkpt>
      <trkpt lat="44.48163" lon="2.45714">
        <ele>330</ele>
        <time>2009-05-19T12:17:03Z</time>
      </trkpt>
      <trkpt lat="44.48167" lon="2.45726">
        <ele>330</ele>
        <time>2009-05-19T12:17:13Z</time>
      </trkpt>
      <trkpt lat="44.48171" lon="2.4574">
        <ele>330</ele>
        <time>2009-05-19T12:17:24Z</time>
      </trkpt>
      <trkpt lat="44.48175" lon="2.45753">
        <ele>330</ele>
        <time>2009-05-19T12:17:35Z</time>
      </trkpt>
      <trkpt lat="44.48178" lon="2.45767">
        <ele>336</ele>
        <time>2009-05-19T12:17:46Z</time>
      </trkpt>
      <trkpt lat="44.48181" lon="2.45779">
        <ele>336</ele>
        <time>2009-05-19T12:17:56Z</time>
      </trkpt>
      <trkpt lat="44.48183" lon="2.45792">
        <ele>336</ele>
        <time>2009-05-19T12:18:05Z</time>
      </trkpt>
      <trkpt lat="44.48184" lon="2.45805">
        <ele>336</ele>
        <time>2009-05-19T12:18:15Z</time>
      </trkpt>
      <trkpt lat="44.48181" lon="2.45819">
        <ele>336</ele>
        <time>2009-05-19T12:18:25Z</time>
      </trkpt>
      <trkpt lat="44.48176" lon="2.4583">
        <ele>336</ele>
        <time>2009-05-19T12:18:34Z</time>
      </trkpt>
      <trkpt lat="44.48169" lon="2.45839">
        <ele>336</ele>
        <time>2009-05-19T12:18:43Z</time>
      </trkpt>
      <trkpt lat="44.4816" lon="2.45846">
        <ele>336</ele>
        <time>2009-05-19T12:18:53Z</time>
      </trkpt>
      <trkpt lat="44.48153" lon="2.45855">
        <ele>341</ele>
        <time>2009-05-19T12:19:03Z</time>
      </trkpt>
      <trkpt lat="44.48146" lon="2.45864">
        <ele>341</ele>
        <time>2009-05-19T12:19:12Z</time>
      </trkpt>
      <trkpt lat="44.48141" lon="2.45876">
        <ele>341</ele>
        <time>2009-05-19T12:19:22Z</time>
      </trkpt>
      <trkpt lat="44.48136" lon="2.45888">
        <ele>341</ele>
        <time>2009-05-19T12:19:31Z</time>
      </trkpt>
      <trkpt lat="44.48132" lon="2.459">
        <ele>341</ele>
        <time>2009-05-19T12:19:41Z</time>
      </trkpt>
      <trkpt lat="44.48127" lon="2.45912">
        <ele>341</ele>
        <time>2009-05-19T12:19:51Z</time>
      </trkpt>
      <trkpt lat="44.4812" lon="2.45923">
        <ele>341</ele>
        <time>2009-05-19T12:20:01Z</time>
      </trkpt>
      <trkpt lat="44.48113" lon="2.45933">
        <ele>341</ele>
        <time>2009-05-19T12:20:11Z</time>
      </trkpt>
      <trkpt lat="44.48106" lon="2.45942">
        <ele>346</ele>
        <time>2009-05-19T12:20:21Z</time>
      </trkpt>
      <trkpt lat="44.48098" lon="2.45951">
        <ele>346</ele>
        <time>2009-05-19T12:20:32Z</time>
      </trkpt>
      <trkpt lat="44.4809" lon="2.45959">
        <ele>346</ele>
        <time>2009-05-19T12:20:42Z</time>
      </trkpt>
      <trkpt lat="44.48082" lon="2.45968">
        <ele>346</ele>
        <time>2009-05-19T12:20:52Z</time>
      </trkpt>
      <trkpt lat="44.48074" lon="2.45975">
        <ele>346</ele>
        <time>2009-05-19T12:21:02Z</time>
      </trkpt>
      <trkpt lat="44.48066" lon="2.45981">
        <ele>352</ele>
        <time>2009-05-19T12:21:11Z</time>
      </trkpt>
      <trkpt lat="44.48057" lon="2.45987">
        <ele>352</ele>
        <time>2009-05-19T12:21:20Z</time>
      </trkpt>
      <trkpt lat="44.48048" lon="2.45992">
        <ele>352</ele>
        <time>2009-05-19T12:21:30Z</time>
      </trkpt>
      <trkpt lat="44.48039" lon="2.45997">
        <ele>352</ele>
        <time>2009-05-19T12:21:40Z</time>
      </trkpt>
      <trkpt lat="44.4803" lon="2.46005">
        <ele>352</ele>
        <time>2009-05-19T12:21:54Z</time>
      </trkpt>
      <trkpt lat="44.48023" lon="2.46014">
        <ele>352</ele>
        <time>2009-05-19T12:22:03Z</time>
      </trkpt>
      <trkpt lat="44.48017" lon="2.46025">
        <ele>352</ele>
        <time>2009-05-19T12:22:13Z</time>
      </trkpt>
      <trkpt lat="44.4801" lon="2.46036">
        <ele>352</ele>
        <time>2009-05-19T12:22:23Z</time>
      </trkpt>
      <trkpt lat="44.48003" lon="2.46046">
        <ele>352</ele>
        <time>2009-05-19T12:22:34Z</time>
      </trkpt>
      <trkpt lat="44.47995" lon="2.46053">
        <ele>357</ele>
        <time>2009-05-19T12:22:44Z</time>
      </trkpt>
      <trkpt lat="44.47988" lon="2.46063">
        <ele>357</ele>
        <time>2009-05-19T12:22:54Z</time>
      </trkpt>
      <trkpt lat="44.47981" lon="2.46073">
        <ele>357</ele>
        <time>2009-05-19T12:23:04Z</time>
      </trkpt>
      <trkpt lat="44.47975" lon="2.46084">
        <ele>357</ele>
        <time>2009-05-19T12:23:13Z</time>
      </trkpt>
      <trkpt lat="44.4797" lon="2.46096">
        <ele>357</ele>
        <time>2009-05-19T12:23:23Z</time>
      </trkpt>
      <trkpt lat="44.47965" lon="2.46109">
        <ele>357</ele>
        <time>2009-05-19T12:23:32Z</time>
      </trkpt>
      <trkpt lat="44.47961" lon="2.4612">
        <ele>357</ele>
        <time>2009-05-19T12:23:41Z</time>
      </trkpt>
      <trkpt lat="44.47956" lon="2.46132">
        <ele>357</ele>
        <time>2009-05-19T12:23:50Z</time>
      </trkpt>
      <trkpt lat="44.47951" lon="2.46144">
        <ele>357</ele>
        <time>2009-05-19T12:23:59Z</time>
      </trkpt>
      <trkpt lat="44.47948" lon="2.46156">
        <ele>357</ele>
        <time>2009-05-19T12:24:09Z</time>
      </trkpt>
      <trkpt lat="44.47942" lon="2.46167">
        <ele>357</ele>
        <time>2009-05-19T12:24:19Z</time>
      </trkpt>
      <trkpt lat="44.47935" lon="2.46177">
        <ele>357</ele>
        <time>2009-05-19T12:24:29Z</time>
      </trkpt>
      <trkpt lat="44.47929" lon="2.46188">
        <ele>357</ele>
        <time>2009-05-19T12:24:38Z</time>
      </trkpt>
      <trkpt lat="44.47924" lon="2.462">
        <ele>357</ele>
        <time>2009-05-19T12:24:47Z</time>
      </trkpt>
      <trkpt lat="44.47922" lon="2.46212">
        <ele>363</ele>
        <time>2009-05-19T12:24:56Z</time>
      </trkpt>
      <trkpt lat="44.4792" lon="2.46226">
        <ele>363</ele>
        <time>2009-05-19T12:25:07Z</time>
      </trkpt>
      <trkpt lat="44.4792" lon="2.4624">
        <ele>363</ele>
        <time>2009-05-19T12:25:17Z</time>
      </trkpt>
      <trkpt lat="44.47921" lon="2.46254">
        <ele>363</ele>
        <time>2009-05-19T12:25:27Z</time>
      </trkpt>
      <trkpt lat="44.47922" lon="2.46268">
        <ele>369</ele>
        <time>2009-05-19T12:25:39Z</time>
      </trkpt>
      <trkpt lat="44.47925" lon="2.46281">
        <ele>369</ele>
        <time>2009-05-19T12:25:50Z</time>
      </trkpt>
      <trkpt lat="44.47927" lon="2.46295">
        <ele>369</ele>
        <time>2009-05-19T12:26:01Z</time>
      </trkpt>
      <trkpt lat="44.47928" lon="2.46309">
        <ele>369</ele>
        <time>2009-05-19T12:26:14Z</time>
      </trkpt>
      <trkpt lat="44.47929" lon="2.46323">
        <ele>369</ele>
        <time>2009-05-19T12:26:25Z</time>
      </trkpt>
      <trkpt lat="44.47929" lon="2.46337">
        <ele>369</ele>
        <time>2009-05-19T12:26:36Z</time>
      </trkpt>
      <trkpt lat="44.47931" lon="2.46351">
        <ele>369</ele>
        <time>2009-05-19T12:26:47Z</time>
      </trkpt>
      <trkpt lat="44.47933" lon="2.46365">
        <ele>375</ele>
        <time>2009-05-19T12:26:58Z</time>
      </trkpt>
      <trkpt lat="44.47935" lon="2.46377">
        <ele>375</ele>
        <time>2009-05-19T12:27:09Z</time>
      </trkpt>
      <trkpt lat="44.4794" lon="2.4639">
        <ele>375</ele>
        <time>2009-05-19T12:27:19Z</time>
      </trkpt>
      <trkpt lat="44.47945" lon="2.46401">
        <ele>375</ele>
        <time>2009-05-19T12:27:28Z</time>
      </trkpt>
      <trkpt lat="44.47952" lon="2.46411">
        <ele>375</ele>
        <time>2009-05-19T12:27:38Z</time>
      </trkpt>
      <trkpt lat="44.47959" lon="2.46421">
        <ele>375</ele>
        <time>2009-05-19T12:27:48Z</time>
      </trkpt>
      <trkpt lat="44.47965" lon="2.46431">
        <ele>375</ele>
        <time>2009-05-19T12:27:59Z</time>
      </trkpt>
      <trkpt lat="44.47972" lon="2.46443">
        <ele>375</ele>
        <time>2009-05-19T12:28:10Z</time>
      </trkpt>
      <trkpt lat="44.47978" lon="2.46455">
        <ele>375</ele>
        <time>2009-05-19T12:28:21Z</time>
      </trkpt>
      <trkpt lat="44.47983" lon="2.46466">
        <ele>375</ele>
        <time>2009-05-19T12:28:32Z</time>
      </trkpt>
      <trkpt lat="44.4799" lon="2.46477">
        <ele>375</ele>
        <time>2009-05-19T12:28:42Z</time>
      </trkpt>
      <trkpt lat="44.47996" lon="2.46488">
        <ele>375</ele>
        <time>2009-05-19T12:28:53Z</time>
      </trkpt>
      <trkpt lat="44.48002" lon="2.465">
        <ele>375</ele>
        <time>2009-05-19T12:29:03Z</time>
      </trkpt>
      <trkpt lat="44.48007" lon="2.46511">
        <ele>375</ele>
        <time>2009-05-19T12:29:12Z</time>
      </trkpt>
      <trkpt lat="44.4801" lon="2.46524">
        <ele>375</ele>
        <time>2009-05-19T12:29:21Z</time>
      </trkpt>
      <trkpt lat="44.48014" lon="2.46537">
        <ele>380</ele>
        <time>2009-05-19T12:29:31Z</time>
      </trkpt>
      <trkpt lat="44.48014" lon="2.46551">
        <ele>380</ele>
        <time>2009-05-19T12:29:40Z</time>
      </trkpt>
      <trkpt lat="44.48013" lon="2.46564">
        <ele>380</ele>
        <time>2009-05-19T12:29:55Z</time>
      </trkpt>
      <trkpt lat="44.4801" lon="2.46578">
        <ele>389</ele>
        <time>2009-05-19T12:33:27Z</time>
      </trkpt>
      <trkpt lat="44.48004" lon="2.46588">
        <ele>389</ele>
        <time>2009-05-19T12:33:39Z</time>
      </trkpt>
      <trkpt lat="44.47996" lon="2.46596">
        <ele>389</ele>
        <time>2009-05-19T12:33:50Z</time>
      </trkpt>
      <trkpt lat="44.47987" lon="2.46604">
        <ele>389</ele>
        <time>2009-05-19T12:34:00Z</time>
      </trkpt>
      <trkpt lat="44.47979" lon="2.46612">
        <ele>389</ele>
        <time>2009-05-19T12:34:11Z</time>
      </trkpt>
      <trkpt lat="44.47971" lon="2.46621">
        <ele>389</ele>
        <time>2009-05-19T12:34:22Z</time>
      </trkpt>
      <trkpt lat="44.47963" lon="2.46629">
        <ele>389</ele>
        <time>2009-05-19T12:34:32Z</time>
      </trkpt>
      <trkpt lat="44.47956" lon="2.46638">
        <ele>389</ele>
        <time>2009-05-19T12:34:43Z</time>
      </trkpt>
      <trkpt lat="44.47947" lon="2.46645">
        <ele>389</ele>
        <time>2009-05-19T12:34:53Z</time>
      </trkpt>
      <trkpt lat="44.47939" lon="2.46651">
        <ele>389</ele>
        <time>2009-05-19T12:35:03Z</time>
      </trkpt>
      <trkpt lat="44.4793" lon="2.46657">
        <ele>389</ele>
        <time>2009-05-19T12:35:13Z</time>
      </trkpt>
      <trkpt lat="44.4792" lon="2.46662">
        <ele>389</ele>
        <time>2009-05-19T12:35:23Z</time>
      </trkpt>
      <trkpt lat="44.47911" lon="2.46667">
        <ele>389</ele>
        <time>2009-05-19T12:35:32Z</time>
      </trkpt>
      <trkpt lat="44.47902" lon="2.46671">
        <ele>389</ele>
        <time>2009-05-19T12:35:41Z</time>
      </trkpt>
      <trkpt lat="44.47892" lon="2.46674">
        <ele>389</ele>
        <time>2009-05-19T12:35:50Z</time>
      </trkpt>
      <trkpt lat="44.47882" lon="2.46675">
        <ele>389</ele>
        <time>2009-05-19T12:35:59Z</time>
      </trkpt>
      <trkpt lat="44.47873" lon="2.46675">
        <ele>389</ele>
        <time>2009-05-19T12:36:08Z</time>
      </trkpt>
      <trkpt lat="44.47863" lon="2.46675">
        <ele>389</ele>
        <time>2009-05-19T12:36:17Z</time>
      </trkpt>
      <trkpt lat="44.47853" lon="2.46676">
        <ele>389</ele>
        <time>2009-05-19T12:36:26Z</time>
      </trkpt>
      <trkpt lat="44.47844" lon="2.46679">
        <ele>389</ele>
        <time>2009-05-19T12:36:36Z</time>
      </trkpt>
      <trkpt lat="44.47835" lon="2.46685">
        <ele>389</ele>
        <time>2009-05-19T12:36:45Z</time>
      </trkpt>
      <trkpt lat="44.47826" lon="2.46693">
        <ele>389</ele>
        <time>2009-05-19T12:36:55Z</time>
      </trkpt>
      <trkpt lat="44.47819" lon="2.46703">
        <ele>389</ele>
        <time>2009-05-19T12:37:04Z</time>
      </trkpt>
      <trkpt lat="44.47812" lon="2.46712">
        <ele>389</ele>
        <time>2009-05-19T12:37:13Z</time>
      </trkpt>
      <trkpt lat="44.47804" lon="2.46721">
        <ele>389</ele>
        <time>2009-05-19T12:37:23Z</time>
      </trkpt>
      <trkpt lat="44.47796" lon="2.4673">
        <ele>389</ele>
        <time>2009-05-19T12:37:32Z</time>
      </trkpt>
      <trkpt lat="44.47788" lon="2.4674">
        <ele>389</ele>
        <time>2009-05-19T12:37:41Z</time>
      </trkpt>
      <trkpt lat="44.47781" lon="2.46749">
        <ele>389</ele>
        <time>2009-05-19T12:37:50Z</time>
      </trkpt>
      <trkpt lat="44.47773" lon="2.46758">
        <ele>389</ele>
        <time>2009-05-19T12:38:00Z</time>
      </trkpt>
      <trkpt lat="44.47767" lon="2.46769">
        <ele>389</ele>
        <time>2009-05-19T12:38:09Z</time>
      </trkpt>
      <trkpt lat="44.47762" lon="2.46782">
        <ele>389</ele>
        <time>2009-05-19T12:38:18Z</time>
      </trkpt>
      <trkpt lat="44.47758" lon="2.46795">
        <ele>389</ele>
        <time>2009-05-19T12:38:28Z</time>
      </trkpt>
      <trkpt lat="44.47754" lon="2.46808">
        <ele>389</ele>
        <time>2009-05-19T12:38:37Z</time>
      </trkpt>
      <trkpt lat="44.47751" lon="2.4682">
        <ele>389</ele>
        <time>2009-05-19T12:38:45Z</time>
      </trkpt>
      <trkpt lat="44.47749" lon="2.46834">
        <ele>389</ele>
        <time>2009-05-19T12:38:55Z</time>
      </trkpt>
      <trkpt lat="44.47747" lon="2.46848">
        <ele>389</ele>
        <time>2009-05-19T12:39:05Z</time>
      </trkpt>
      <trkpt lat="44.47745" lon="2.46862">
        <ele>389</ele>
        <time>2009-05-19T12:39:14Z</time>
      </trkpt>
      <trkpt lat="44.47744" lon="2.46876">
        <ele>389</ele>
        <time>2009-05-19T12:39:23Z</time>
      </trkpt>
      <trkpt lat="44.47744" lon="2.46889">
        <ele>389</ele>
        <time>2009-05-19T12:39:32Z</time>
      </trkpt>
      <trkpt lat="44.47744" lon="2.46903">
        <ele>389</ele>
        <time>2009-05-19T12:39:41Z</time>
      </trkpt>
      <trkpt lat="44.47747" lon="2.46915">
        <ele>389</ele>
        <time>2009-05-19T12:39:50Z</time>
      </trkpt>
      <trkpt lat="44.47753" lon="2.46926">
        <ele>389</ele>
        <time>2009-05-19T12:39:59Z</time>
      </trkpt>
      <trkpt lat="44.4776" lon="2.46936">
        <ele>389</ele>
        <time>2009-05-19T12:40:08Z</time>
      </trkpt>
      <trkpt lat="44.47769" lon="2.46943">
        <ele>389</ele>
        <time>2009-05-19T12:40:17Z</time>
      </trkpt>
      <trkpt lat="44.47778" lon="2.46947">
        <ele>389</ele>
        <time>2009-05-19T12:40:26Z</time>
      </trkpt>
      <trkpt lat="44.47789" lon="2.46951">
        <ele>389</ele>
        <time>2009-05-19T12:40:36Z</time>
      </trkpt>
      <trkpt lat="44.47798" lon="2.46953">
        <ele>389</ele>
        <time>2009-05-19T12:40:45Z</time>
      </trkpt>
      <trkpt lat="44.47807" lon="2.46958">
        <ele>389</ele>
        <time>2009-05-19T12:40:54Z</time>
      </trkpt>
      <trkpt lat="44.47816" lon="2.46964">
        <ele>389</ele>
        <time>2009-05-19T12:41:03Z</time>
      </trkpt>
      <trkpt lat="44.47826" lon="2.46969">
        <ele>389</ele>
        <time>2009-05-19T12:41:13Z</time>
      </trkpt>
      <trkpt lat="44.47835" lon="2.46974">
        <ele>389</ele>
        <time>2009-05-19T12:41:22Z</time>
      </trkpt>
      <trkpt lat="44.47844" lon="2.4698">
        <ele>389</ele>
        <time>2009-05-19T12:41:32Z</time>
      </trkpt>
      <trkpt lat="44.47853" lon="2.46985">
        <ele>389</ele>
        <time>2009-05-19T12:41:41Z</time>
      </trkpt>
      <trkpt lat="44.47862" lon="2.46991">
        <ele>389</ele>
        <time>2009-05-19T12:41:51Z</time>
      </trkpt>
      <trkpt lat="44.47872" lon="2.46995">
        <ele>389</ele>
        <time>2009-05-19T12:42:01Z</time>
      </trkpt>
      <trkpt lat="44.47881" lon="2.47002">
        <ele>389</ele>
        <time>2009-05-19T12:42:11Z</time>
      </trkpt>
      <trkpt lat="44.47891" lon="2.47007">
        <ele>389</ele>
        <time>2009-05-19T12:42:21Z</time>
      </trkpt>
      <trkpt lat="44.479" lon="2.47012">
        <ele>389</ele>
        <time>2009-05-19T12:42:31Z</time>
      </trkpt>
      <trkpt lat="44.47909" lon="2.47017">
        <ele>389</ele>
        <time>2009-05-19T12:42:40Z</time>
      </trkpt>
      <trkpt lat="44.47918" lon="2.47022">
        <ele>389</ele>
        <time>2009-05-19T12:42:50Z</time>
      </trkpt>
      <trkpt lat="44.47927" lon="2.47027">
        <ele>394</ele>
        <time>2009-05-19T12:43:00Z</time>
      </trkpt>
      <trkpt lat="44.47936" lon="2.47033">
        <ele>394</ele>
        <time>2009-05-19T12:43:10Z</time>
      </trkpt>
      <trkpt lat="44.47945" lon="2.47039">
        <ele>394</ele>
        <time>2009-05-19T12:43:20Z</time>
      </trkpt>
      <trkpt lat="44.47954" lon="2.47047">
        <ele>394</ele>
        <time>2009-05-19T12:43:30Z</time>
      </trkpt>
      <trkpt lat="44.47963" lon="2.47052">
        <ele>394</ele>
        <time>2009-05-19T12:43:41Z</time>
      </trkpt>
      <trkpt lat="44.47972" lon="2.47057">
        <ele>394</ele>
        <time>2009-05-19T12:43:50Z</time>
      </trkpt>
      <trkpt lat="44.47981" lon="2.47062">
        <ele>400</ele>
        <time>2009-05-19T12:44:00Z</time>
      </trkpt>
      <trkpt lat="44.4799" lon="2.47068">
        <ele>400</ele>
        <time>2009-05-19T12:44:10Z</time>
      </trkpt>
      <trkpt lat="44.47998" lon="2.47074">
        <ele>400</ele>
        <time>2009-05-19T12:44:20Z</time>
      </trkpt>
      <trkpt lat="44.48007" lon="2.47082">
        <ele>400</ele>
        <time>2009-05-19T12:44:30Z</time>
      </trkpt>
      <trkpt lat="44.48015" lon="2.47089">
        <ele>400</ele>
        <time>2009-05-19T12:44:39Z</time>
      </trkpt>
      <trkpt lat="44.48023" lon="2.47095">
        <ele>400</ele>
        <time>2009-05-19T12:44:49Z</time>
      </trkpt>
      <trkpt lat="44.48032" lon="2.47101">
        <ele>400</ele>
        <time>2009-05-19T12:44:59Z</time>
      </trkpt>
      <trkpt lat="44.48041" lon="2.47107">
        <ele>400</ele>
        <time>2009-05-19T12:45:08Z</time>
      </trkpt>
      <trkpt lat="44.4805" lon="2.47113">
        <ele>400</ele>
        <time>2009-05-19T12:45:18Z</time>
      </trkpt>
      <trkpt lat="44.48058" lon="2.47119">
        <ele>400</ele>
        <time>2009-05-19T12:45:28Z</time>
      </trkpt>
      <trkpt lat="44.48064" lon="2.4713">
        <ele>405</ele>
        <time>2009-05-19T12:45:38Z</time>
      </trkpt>
      <trkpt lat="44.48068" lon="2.47143">
        <ele>405</ele>
        <time>2009-05-19T12:45:49Z</time>
      </trkpt>
      <trkpt lat="44.48066" lon="2.47156">
        <ele>405</ele>
        <time>2009-05-19T12:46:01Z</time>
      </trkpt>
      <trkpt lat="44.48061" lon="2.47167">
        <ele>411</ele>
        <time>2009-05-19T12:46:11Z</time>
      </trkpt>
      <trkpt lat="44.48055" lon="2.4718">
        <ele>411</ele>
        <time>2009-05-19T12:46:22Z</time>
      </trkpt>
      <trkpt lat="44.48048" lon="2.4719">
        <ele>411</ele>
        <time>2009-05-19T12:46:32Z</time>
      </trkpt>
      <trkpt lat="44.48042" lon="2.47201">
        <ele>411</ele>
        <time>2009-05-19T12:46:42Z</time>
      </trkpt>
      <trkpt lat="44.48035" lon="2.47211">
        <ele>411</ele>
        <time>2009-05-19T12:46:51Z</time>
      </trkpt>
      <trkpt lat="44.48029" lon="2.47223">
        <ele>411</ele>
        <time>2009-05-19T12:47:00Z</time>
      </trkpt>
      <trkpt lat="44.48027" lon="2.47236">
        <ele>411</ele>
        <time>2009-05-19T12:47:12Z</time>
      </trkpt>
      <trkpt lat="44.48033" lon="2.47247">
        <ele>411</ele>
        <time>2009-05-19T12:47:25Z</time>
      </trkpt>
      <trkpt lat="44.48041" lon="2.47254">
        <ele>411</ele>
        <time>2009-05-19T12:47:39Z</time>
      </trkpt>
      <trkpt lat="44.48049" lon="2.47262">
        <ele>411</ele>
        <time>2009-05-19T12:47:51Z</time>
      </trkpt>
      <trkpt lat="44.48052" lon="2.47275">
        <ele>411</ele>
        <time>2009-05-19T12:48:04Z</time>
      </trkpt>
      <trkpt lat="44.48054" lon="2.47287">
        <ele>418</ele>
        <time>2009-05-19T12:48:15Z</time>
      </trkpt>
      <trkpt lat="44.48058" lon="2.473">
        <ele>418</ele>
        <time>2009-05-19T12:48:28Z</time>
      </trkpt>
      <trkpt lat="44.48063" lon="2.47312">
        <ele>418</ele>
        <time>2009-05-19T12:48:40Z</time>
      </trkpt>
      <trkpt lat="44.48069" lon="2.47323">
        <ele>418</ele>
        <time>2009-05-19T12:48:52Z</time>
      </trkpt>
      <trkpt lat="44.48075" lon="2.47334">
        <ele>418</ele>
        <time>2009-05-19T12:49:05Z</time>
      </trkpt>
      <trkpt lat="44.48081" lon="2.47346">
        <ele>424</ele>
        <time>2009-05-19T12:49:18Z</time>
      </trkpt>
      <trkpt lat="44.48088" lon="2.47354">
        <ele>424</ele>
        <time>2009-05-19T12:49:30Z</time>
      </trkpt>
      <trkpt lat="44.48097" lon="2.47362">
        <ele>424</ele>
        <time>2009-05-19T12:49:43Z</time>
      </trkpt>
      <trkpt lat="44.48104" lon="2.47371">
        <ele>424</ele>
        <time>2009-05-19T12:49:58Z</time>
      </trkpt>
      <trkpt lat="44.48111" lon="2.4738">
        <ele>424</ele>
        <time>2009-05-19T12:50:11Z</time>
      </trkpt>
      <trkpt lat="44.48118" lon="2.4739">
        <ele>430</ele>
        <time>2009-05-19T12:50:23Z</time>
      </trkpt>
      <trkpt lat="44.48126" lon="2.47398">
        <ele>430</ele>
        <time>2009-05-19T12:50:36Z</time>
      </trkpt>
      <trkpt lat="44.48135" lon="2.47405">
        <ele>430</ele>
        <time>2009-05-19T12:50:52Z</time>
      </trkpt>
      <trkpt lat="44.48143" lon="2.47411">
        <ele>430</ele>
        <time>2009-05-19T12:51:07Z</time>
      </trkpt>
      <trkpt lat="44.48151" lon="2.47418">
        <ele>430</ele>
        <time>2009-05-19T12:51:20Z</time>
      </trkpt>
      <trkpt lat="44.4816" lon="2.47424">
        <ele>430</ele>
        <time>2009-05-19T12:51:33Z</time>
      </trkpt>
      <trkpt lat="44.48168" lon="2.47431">
        <ele>436</ele>
        <time>2009-05-19T12:51:47Z</time>
      </trkpt>
      <trkpt lat="44.48176" lon="2.47438">
        <ele>436</ele>
        <time>2009-05-19T12:52:02Z</time>
      </trkpt>
      <trkpt lat="44.48185" lon="2.47445">
        <ele>436</ele>
        <time>2009-05-19T12:52:16Z</time>
      </trkpt>
      <trkpt lat="44.48194" lon="2.4745">
        <ele>436</ele>
        <time>2009-05-19T12:52:48Z</time>
      </trkpt>
      <trkpt lat="44.48203" lon="2.47454">
        <ele>442</ele>
        <time>2009-05-19T12:53:01Z</time>
      </trkpt>
      <trkpt lat="44.48213" lon="2.47458">
        <ele>442</ele>
        <time>2009-05-19T12:53:17Z</time>
      </trkpt>
      <trkpt lat="44.48223" lon="2.47457">
        <ele>442</ele>
        <time>2009-05-19T12:55:33Z</time>
      </trkpt>
      <trkpt lat="44.48232" lon="2.47462">
        <ele>442</ele>
        <time>2009-05-19T12:55:44Z</time>
      </trkpt>
      <trkpt lat="44.48242" lon="2.47464">
        <ele>448</ele>
        <time>2009-05-19T12:55:55Z</time>
      </trkpt>
      <trkpt lat="44.48251" lon="2.47469">
        <ele>448</ele>
        <time>2009-05-19T12:56:08Z</time>
      </trkpt>
      <trkpt lat="44.4826" lon="2.47472">
        <ele>448</ele>
        <time>2009-05-19T12:56:19Z</time>
      </trkpt>
      <trkpt lat="44.4827" lon="2.47475">
        <ele>448</ele>
        <time>2009-05-19T12:56:31Z</time>
      </trkpt>
      <trkpt lat="44.48279" lon="2.47479">
        <ele>448</ele>
        <time>2009-05-19T13:02:22Z</time>
      </trkpt>
      <trkpt lat="44.48288" lon="2.47483">
        <ele>453</ele>
        <time>2009-05-19T13:02:34Z</time>
      </trkpt>
      <trkpt lat="44.48298" lon="2.47484">
        <ele>453</ele>
        <time>2009-05-19T13:02:48Z</time>
      </trkpt>
      <trkpt lat="44.48307" lon="2.4749">
        <ele>453</ele>
        <time>2009-05-19T13:03:03Z</time>
      </trkpt>
      <trkpt lat="44.48315" lon="2.47498">
        <ele>453</ele>
        <time>2009-05-19T13:03:19Z</time>
      </trkpt>
      <trkpt lat="44.48324" lon="2.47504">
        <ele>453</ele>
        <time>2009-05-19T13:03:31Z</time>
      </trkpt>
      <trkpt lat="44.48329" lon="2.47515">
        <ele>453</ele>
        <time>2009-05-19T13:03:45Z</time>
      </trkpt>
      <trkpt lat="44.48335" lon="2.47525">
        <ele>462</ele>
        <time>2009-05-19T13:04:04Z</time>
      </trkpt>
      <trkpt lat="44.4834" lon="2.47537">
        <ele>462</ele>
        <time>2009-05-19T13:04:19Z</time>
      </trkpt>
      <trkpt lat="44.48344" lon="2.47551">
        <ele>462</ele>
        <time>2009-05-19T13:04:35Z</time>
      </trkpt>
      <trkpt lat="44.48345" lon="2.47564">
        <ele>462</ele>
        <time>2009-05-19T13:04:55Z</time>
      </trkpt>
      <trkpt lat="44.48347" lon="2.47578">
        <ele>462</ele>
        <time>2009-05-19T13:05:11Z</time>
      </trkpt>
      <trkpt lat="44.48349" lon="2.4759">
        <ele>462</ele>
        <time>2009-05-19T13:05:23Z</time>
      </trkpt>
      <trkpt lat="44.48355" lon="2.47602">
        <ele>468</ele>
        <time>2009-05-19T13:05:32Z</time>
      </trkpt>
      <trkpt lat="44.48364" lon="2.47606">
        <ele>468</ele>
        <time>2009-05-19T13:05:41Z</time>
      </trkpt>
      <trkpt lat="44.48373" lon="2.47611">
        <ele>468</ele>
        <time>2009-05-19T13:05:51Z</time>
      </trkpt>
      <trkpt lat="44.48382" lon="2.47614">
        <ele>473</ele>
        <time>2009-05-19T13:06:02Z</time>
      </trkpt>
      <trkpt lat="44.48392" lon="2.47615">
        <ele>473</ele>
        <time>2009-05-19T13:06:13Z</time>
      </trkpt>
      <trkpt lat="44.48401" lon="2.47616">
        <ele>478</ele>
        <time>2009-05-19T13:06:25Z</time>
      </trkpt>
      <trkpt lat="44.48411" lon="2.47615">
        <ele>478</ele>
        <time>2009-05-19T13:06:36Z</time>
      </trkpt>
      <trkpt lat="44.48421" lon="2.47614">
        <ele>478</ele>
        <time>2009-05-19T13:06:48Z</time>
      </trkpt>
      <trkpt lat="44.4843" lon="2.47613">
        <ele>478</ele>
        <time>2009-05-19T13:07:00Z</time>
      </trkpt>
      <trkpt lat="44.4844" lon="2.47613">
        <ele>478</ele>
        <time>2009-05-19T13:07:12Z</time>
      </trkpt>
      <trkpt lat="44.4845" lon="2.47613">
        <ele>478</ele>
        <time>2009-05-19T13:07:24Z</time>
      </trkpt>
      <trkpt lat="44.4846" lon="2.47613">
        <ele>484</ele>
        <time>2009-05-19T13:07:36Z</time>
      </trkpt>
      <trkpt lat="44.4847" lon="2.47613">
        <ele>484</ele>
        <time>2009-05-19T13:07:48Z</time>
      </trkpt>
      <trkpt lat="44.48479" lon="2.47618">
        <ele>484</ele>
        <time>2009-05-19T13:08:01Z</time>
      </trkpt>
      <trkpt lat="44.48489" lon="2.4762">
        <ele>484</ele>
        <time>2009-05-19T13:08:12Z</time>
      </trkpt>
      <trkpt lat="44.48499" lon="2.4762">
        <ele>484</ele>
        <time>2009-05-19T13:08:23Z</time>
      </trkpt>
      <trkpt lat="44.48509" lon="2.4762">
        <ele>484</ele>
        <time>2009-05-19T13:08:34Z</time>
      </trkpt>
      <trkpt lat="44.48518" lon="2.47617">
        <ele>490</ele>
        <time>2009-05-19T13:08:46Z</time>
      </trkpt>
      <trkpt lat="44.48528" lon="2.47619">
        <ele>490</ele>
        <time>2009-05-19T13:08:56Z</time>
      </trkpt>
      <trkpt lat="44.48536" lon="2.47627">
        <ele>490</ele>
        <time>2009-05-19T13:09:08Z</time>
      </trkpt>
      <trkpt lat="44.48542" lon="2.47639">
        <ele>490</ele>
        <time>2009-05-19T13:09:20Z</time>
      </trkpt>
      <trkpt lat="44.48547" lon="2.47651">
        <ele>490</ele>
        <time>2009-05-19T13:09:32Z</time>
      </trkpt>
      <trkpt lat="44.48553" lon="2.47662">
        <ele>490</ele>
        <time>2009-05-19T13:09:42Z</time>
      </trkpt>
      <trkpt lat="44.48559" lon="2.47674">
        <ele>490</ele>
        <time>2009-05-19T13:09:52Z</time>
      </trkpt>
      <trkpt lat="44.48563" lon="2.47686">
        <ele>490</ele>
        <time>2009-05-19T13:10:02Z</time>
      </trkpt>
      <trkpt lat="44.48567" lon="2.47699">
        <ele>490</ele>
        <time>2009-05-19T13:10:13Z</time>
      </trkpt>
      <trkpt lat="44.48573" lon="2.47711">
        <ele>490</ele>
        <time>2009-05-19T13:10:23Z</time>
      </trkpt>
      <trkpt lat="44.48577" lon="2.47724">
        <ele>490</ele>
        <time>2009-05-19T13:10:33Z</time>
      </trkpt>
      <trkpt lat="44.48582" lon="2.47737">
        <ele>490</ele>
        <time>2009-05-19T13:10:43Z</time>
      </trkpt>
      <trkpt lat="44.48585" lon="2.47749">
        <ele>490</ele>
        <time>2009-05-19T13:10:53Z</time>
      </trkpt>
      <trkpt lat="44.48587" lon="2.47762">
        <ele>490</ele>
        <time>2009-05-19T13:11:04Z</time>
      </trkpt>
      <trkpt lat="44.48588" lon="2.47776">
        <ele>496</ele>
        <time>2009-05-19T13:11:16Z</time>
      </trkpt>
      <trkpt lat="44.4859" lon="2.4779">
        <ele>496</ele>
        <time>2009-05-19T13:11:28Z</time>
      </trkpt>
      <trkpt lat="44.48591" lon="2.47803">
        <ele>496</ele>
        <time>2009-05-19T13:11:39Z</time>
      </trkpt>
      <trkpt lat="44.48597" lon="2.47816">
        <ele>496</ele>
        <time>2009-05-19T13:11:47Z</time>
      </trkpt>
      <trkpt lat="44.48603" lon="2.47826">
        <ele>496</ele>
        <time>2009-05-19T13:11:55Z</time>
      </trkpt>
      <trkpt lat="44.48607" lon="2.47839">
        <ele>496</ele>
        <time>2009-05-19T13:12:04Z</time>
      </trkpt>
      <trkpt lat="44.48613" lon="2.47851">
        <ele>496</ele>
        <time>2009-05-19T13:12:13Z</time>
      </trkpt>
      <trkpt lat="44.48619" lon="2.47862">
        <ele>496</ele>
        <time>2009-05-19T13:12:22Z</time>
      </trkpt>
      <trkpt lat="44.48625" lon="2.47873">
        <ele>489</ele>
        <time>2009-05-19T13:12:30Z</time>
      </trkpt>
      <trkpt lat="44.4863" lon="2.47885">
        <ele>489</ele>
        <time>2009-05-19T13:12:40Z</time>
      </trkpt>
      <trkpt lat="44.48634" lon="2.47896">
        <ele>489</ele>
        <time>2009-05-19T13:12:49Z</time>
      </trkpt>
      <trkpt lat="44.48639" lon="2.47908">
        <ele>489</ele>
        <time>2009-05-19T13:12:59Z</time>
      </trkpt>
      <trkpt lat="44.48645" lon="2.47921">
        <ele>489</ele>
        <time>2009-05-19T13:13:10Z</time>
      </trkpt>
      <trkpt lat="44.48651" lon="2.47932">
        <ele>489</ele>
        <time>2009-05-19T13:13:20Z</time>
      </trkpt>
      <trkpt lat="44.48657" lon="2.47944">
        <ele>489</ele>
        <time>2009-05-19T13:13:30Z</time>
      </trkpt>
      <trkpt lat="44.48663" lon="2.47956">
        <ele>489</ele>
        <time>2009-05-19T13:13:41Z</time>
      </trkpt>
      <trkpt lat="44.48668" lon="2.47968">
        <ele>489</ele>
        <time>2009-05-19T13:13:52Z</time>
      </trkpt>
      <trkpt lat="44.48674" lon="2.47979">
        <ele>489</ele>
        <time>2009-05-19T13:14:02Z</time>
      </trkpt>
      <trkpt lat="44.48679" lon="2.47991">
        <ele>489</ele>
        <time>2009-05-19T13:14:12Z</time>
      </trkpt>
      <trkpt lat="44.48684" lon="2.48002">
        <ele>489</ele>
        <time>2009-05-19T13:14:22Z</time>
      </trkpt>
      <trkpt lat="44.4869" lon="2.48014">
        <ele>489</ele>
        <time>2009-05-19T13:14:31Z</time>
      </trkpt>
      <trkpt lat="44.48695" lon="2.48026">
        <ele>489</ele>
        <time>2009-05-19T13:14:41Z</time>
      </trkpt>
      <trkpt lat="44.48702" lon="2.48037">
        <ele>489</ele>
        <time>2009-05-19T13:14:50Z</time>
      </trkpt>
      <trkpt lat="44.48709" lon="2.48046">
        <ele>489</ele>
        <time>2009-05-19T13:15:00Z</time>
      </trkpt>
      <trkpt lat="44.48717" lon="2.48054">
        <ele>489</ele>
        <time>2009-05-19T13:15:10Z</time>
      </trkpt>
      <trkpt lat="44.48725" lon="2.48063">
        <ele>489</ele>
        <time>2009-05-19T13:15:22Z</time>
      </trkpt>
      <trkpt lat="44.48732" lon="2.48072">
        <ele>489</ele>
        <time>2009-05-19T13:15:31Z</time>
      </trkpt>
      <trkpt lat="44.48738" lon="2.48082">
        <ele>489</ele>
        <time>2009-05-19T13:15:40Z</time>
      </trkpt>
      <trkpt lat="44.48744" lon="2.48094">
        <ele>489</ele>
        <time>2009-05-19T13:15:50Z</time>
      </trkpt>
      <trkpt lat="44.48749" lon="2.48106">
        <ele>489</ele>
        <time>2009-05-19T13:16:00Z</time>
      </trkpt>
      <trkpt lat="44.48754" lon="2.48118">
        <ele>489</ele>
        <time>2009-05-19T13:16:10Z</time>
      </trkpt>
      <trkpt lat="44.48758" lon="2.48132">
        <ele>489</ele>
        <time>2009-05-19T13:16:21Z</time>
      </trkpt>
      <trkpt lat="44.48762" lon="2.48144">
        <ele>489</ele>
        <time>2009-05-19T13:16:32Z</time>
      </trkpt>
      <trkpt lat="44.48767" lon="2.48157">
        <ele>494</ele>
        <time>2009-05-19T13:16:42Z</time>
      </trkpt>
      <trkpt lat="44.48772" lon="2.48169">
        <ele>494</ele>
        <time>2009-05-19T13:16:52Z</time>
      </trkpt>
      <trkpt lat="44.48778" lon="2.48179">
        <ele>494</ele>
        <time>2009-05-19T13:17:02Z</time>
      </trkpt>
      <trkpt lat="44.48785" lon="2.48188">
        <ele>494</ele>
        <time>2009-05-19T13:17:11Z</time>
      </trkpt>
      <trkpt lat="44.48791" lon="2.48199">
        <ele>494</ele>
        <time>2009-05-19T13:17:21Z</time>
      </trkpt>
      <trkpt lat="44.48797" lon="2.4821">
        <ele>494</ele>
        <time>2009-05-19T13:17:43Z</time>
      </trkpt>
      <trkpt lat="44.48788" lon="2.48214">
        <ele>494</ele>
        <time>2009-05-19T13:18:46Z</time>
      </trkpt>
      <trkpt lat="44.48781" lon="2.48224">
        <ele>494</ele>
        <time>2009-05-19T13:18:57Z</time>
      </trkpt>
      <trkpt lat="44.48774" lon="2.48233">
        <ele>494</ele>
        <time>2009-05-19T13:19:08Z</time>
      </trkpt>
      <trkpt lat="44.48766" lon="2.48241">
        <ele>494</ele>
        <time>2009-05-19T13:19:18Z</time>
      </trkpt>
      <trkpt lat="44.48758" lon="2.4825">
        <ele>494</ele>
        <time>2009-05-19T13:19:27Z</time>
      </trkpt>
      <trkpt lat="44.48751" lon="2.48258">
        <ele>494</ele>
        <time>2009-05-19T13:19:37Z</time>
      </trkpt>
      <trkpt lat="44.48744" lon="2.48267">
        <ele>494</ele>
        <time>2009-05-19T13:19:48Z</time>
      </trkpt>
      <trkpt lat="44.48734" lon="2.48269">
        <ele>494</ele>
        <time>2009-05-19T13:20:00Z</time>
      </trkpt>
      <trkpt lat="44.48726" lon="2.48262">
        <ele>494</ele>
        <time>2009-05-19T13:20:13Z</time>
      </trkpt>
      <trkpt lat="44.48717" lon="2.48254">
        <ele>494</ele>
        <time>2009-05-19T13:20:24Z</time>
      </trkpt>
      <trkpt lat="44.48709" lon="2.48246">
        <ele>494</ele>
        <time>2009-05-19T13:20:35Z</time>
      </trkpt>
      <trkpt lat="44.487" lon="2.48241">
        <ele>488</ele>
        <time>2009-05-19T13:20:47Z</time>
      </trkpt>
      <trkpt lat="44.48691" lon="2.48236">
        <ele>488</ele>
        <time>2009-05-19T13:20:59Z</time>
      </trkpt>
      <trkpt lat="44.48683" lon="2.4823">
        <ele>488</ele>
        <time>2009-05-19T13:21:09Z</time>
      </trkpt>
      <trkpt lat="44.48674" lon="2.48224">
        <ele>488</ele>
        <time>2009-05-19T13:21:21Z</time>
      </trkpt>
      <trkpt lat="44.48664" lon="2.48223">
        <ele>488</ele>
        <time>2009-05-19T13:21:33Z</time>
      </trkpt>
      <trkpt lat="44.48655" lon="2.48227">
        <ele>482</ele>
        <time>2009-05-19T13:21:44Z</time>
      </trkpt>
      <trkpt lat="44.48646" lon="2.48233">
        <ele>482</ele>
        <time>2009-05-19T13:22:03Z</time>
      </trkpt>
      <trkpt lat="44.48638" lon="2.4824">
        <ele>482</ele>
        <time>2009-05-19T13:22:15Z</time>
      </trkpt>
      <trkpt lat="44.4863" lon="2.48247">
        <ele>477</ele>
        <time>2009-05-19T13:22:30Z</time>
      </trkpt>
      <trkpt lat="44.48621" lon="2.48255">
        <ele>477</ele>
        <time>2009-05-19T13:22:47Z</time>
      </trkpt>
      <trkpt lat="44.48614" lon="2.48263">
        <ele>477</ele>
        <time>2009-05-19T13:22:57Z</time>
      </trkpt>
      <trkpt lat="44.48603" lon="2.48268">
        <ele>477</ele>
        <time>2009-05-19T13:23:07Z</time>
      </trkpt>
      <trkpt lat="44.48594" lon="2.48274">
        <ele>470</ele>
        <time>2009-05-19T13:23:14Z</time>
      </trkpt>
      <trkpt lat="44.48585" lon="2.4828">
        <ele>470</ele>
        <time>2009-05-19T13:23:25Z</time>
      </trkpt>
      <trkpt lat="44.48578" lon="2.48289">
        <ele>465</ele>
        <time>2009-05-19T13:23:34Z</time>
      </trkpt>
      <trkpt lat="44.48571" lon="2.48299">
        <ele>465</ele>
        <time>2009-05-19T13:23:42Z</time>
      </trkpt>
      <trkpt lat="44.48565" lon="2.4831">
        <ele>465</ele>
        <time>2009-05-19T13:23:54Z</time>
      </trkpt>
      <trkpt lat="44.48559" lon="2.4832">
        <ele>459</ele>
        <time>2009-05-19T13:24:07Z</time>
      </trkpt>
      <trkpt lat="44.48555" lon="2.48333">
        <ele>459</ele>
        <time>2009-05-19T13:24:18Z</time>
      </trkpt>
      <trkpt lat="44.48549" lon="2.48345">
        <ele>459</ele>
        <time>2009-05-19T13:24:29Z</time>
      </trkpt>
      <trkpt lat="44.48543" lon="2.48356">
        <ele>452</ele>
        <time>2009-05-19T13:24:41Z</time>
      </trkpt>
      <trkpt lat="44.48536" lon="2.48369">
        <ele>452</ele>
        <time>2009-05-19T13:24:53Z</time>
      </trkpt>
      <trkpt lat="44.48533" lon="2.48382">
        <ele>452</ele>
        <time>2009-05-19T13:25:17Z</time>
      </trkpt>
      <trkpt lat="44.48528" lon="2.48393">
        <ele>452</ele>
        <time>2009-05-19T13:25:27Z</time>
      </trkpt>
      <trkpt lat="44.48524" lon="2.48405">
        <ele>452</ele>
        <time>2009-05-19T13:25:41Z</time>
      </trkpt>
      <trkpt lat="44.48519" lon="2.48417">
        <ele>445</ele>
        <time>2009-05-19T13:25:55Z</time>
      </trkpt>
      <trkpt lat="44.48527" lon="2.48425">
        <ele>445</ele>
        <time>2009-05-19T13:26:41Z</time>
      </trkpt>
      <trkpt lat="44.48536" lon="2.48419">
        <ele>445</ele>
        <time>2009-05-19T13:26:53Z</time>
      </trkpt>
      <trkpt lat="44.48545" lon="2.48412">
        <ele>445</ele>
        <time>2009-05-19T13:27:02Z</time>
      </trkpt>
      <trkpt lat="44.48554" lon="2.48404">
        <ele>439</ele>
        <time>2009-05-19T13:27:11Z</time>
      </trkpt>
      <trkpt lat="44.48562" lon="2.48397">
        <ele>439</ele>
        <time>2009-05-19T13:27:20Z</time>
      </trkpt>
      <trkpt lat="44.48571" lon="2.4839">
        <ele>439</ele>
        <time>2009-05-19T13:27:31Z</time>
      </trkpt>
      <trkpt lat="44.48579" lon="2.48383">
        <ele>434</ele>
        <time>2009-05-19T13:28:23Z</time>
      </trkpt>
      <trkpt lat="44.48587" lon="2.48376">
        <ele>434</ele>
        <time>2009-05-19T13:28:35Z</time>
      </trkpt>
      <trkpt lat="44.48596" lon="2.48369">
        <ele>434</ele>
        <time>2009-05-19T13:28:45Z</time>
      </trkpt>
      <trkpt lat="44.48605" lon="2.48365">
        <ele>434</ele>
        <time>2009-05-19T13:28:55Z</time>
      </trkpt>
      <trkpt lat="44.48616" lon="2.48364">
        <ele>434</ele>
        <time>2009-05-19T13:29:08Z</time>
      </trkpt>
      <trkpt lat="44.48625" lon="2.4837">
        <ele>424</ele>
        <time>2009-05-19T13:29:21Z</time>
      </trkpt>
      <trkpt lat="44.48619" lon="2.48382">
        <ele>424</ele>
        <time>2009-05-19T13:29:35Z</time>
      </trkpt>
      <trkpt lat="44.48612" lon="2.4839">
        <ele>417</ele>
        <time>2009-05-19T13:29:47Z</time>
      </trkpt>
      <trkpt lat="44.48605" lon="2.48399">
        <ele>417</ele>
        <time>2009-05-19T13:29:59Z</time>
      </trkpt>
      <trkpt lat="44.48598" lon="2.48408">
        <ele>417</ele>
        <time>2009-05-19T13:30:09Z</time>
      </trkpt>
      <trkpt lat="44.48594" lon="2.48421">
        <ele>411</ele>
        <time>2009-05-19T13:30:20Z</time>
      </trkpt>
      <trkpt lat="44.48589" lon="2.48434">
        <ele>411</ele>
        <time>2009-05-19T13:30:34Z</time>
      </trkpt>
      <trkpt lat="44.48583" lon="2.48444">
        <ele>411</ele>
        <time>2009-05-19T13:30:45Z</time>
      </trkpt>
      <trkpt lat="44.48577" lon="2.48454">
        <ele>411</ele>
        <time>2009-05-19T13:30:58Z</time>
      </trkpt>
      <trkpt lat="44.48573" lon="2.48466">
        <ele>404</ele>
        <time>2009-05-19T13:31:11Z</time>
      </trkpt>
      <trkpt lat="44.48568" lon="2.48479">
        <ele>404</ele>
        <time>2009-05-19T13:31:23Z</time>
      </trkpt>
      <trkpt lat="44.48564" lon="2.48491">
        <ele>404</ele>
        <time>2009-05-19T13:31:35Z</time>
      </trkpt>
      <trkpt lat="44.48559" lon="2.48503">
        <ele>396</ele>
        <time>2009-05-19T13:31:47Z</time>
      </trkpt>
      <trkpt lat="44.48554" lon="2.48514">
        <ele>396</ele>
        <time>2009-05-19T13:32:01Z</time>
      </trkpt>
      <trkpt lat="44.48549" lon="2.48525">
        <ele>396</ele>
        <time>2009-05-19T13:32:14Z</time>
      </trkpt>
      <trkpt lat="44.48545" lon="2.48538">
        <ele>391</ele>
        <time>2009-05-19T13:32:31Z</time>
      </trkpt>
      <trkpt lat="44.48538" lon="2.48548">
        <ele>391</ele>
        <time>2009-05-19T13:32:42Z</time>
      </trkpt>
      <trkpt lat="44.48545" lon="2.48556">
        <ele>391</ele>
        <time>2009-05-19T13:32:56Z</time>
      </trkpt>
      <trkpt lat="44.48555" lon="2.48558">
        <ele>391</ele>
        <time>2009-05-19T13:33:14Z</time>
      </trkpt>
      <trkpt lat="44.48565" lon="2.48556">
        <ele>391</ele>
        <time>2009-05-19T13:33:26Z</time>
      </trkpt>
      <trkpt lat="44.48575" lon="2.48554">
        <ele>391</ele>
        <time>2009-05-19T13:33:38Z</time>
      </trkpt>
      <trkpt lat="44.48585" lon="2.48553">
        <ele>391</ele>
        <time>2009-05-19T13:33:50Z</time>
      </trkpt>
      <trkpt lat="44.48594" lon="2.48554">
        <ele>374</ele>
        <time>2009-05-19T13:34:43Z</time>
      </trkpt>
      <trkpt lat="44.48596" lon="2.48567">
        <ele>374</ele>
        <time>2009-05-19T13:34:58Z</time>
      </trkpt>
      <trkpt lat="44.48591" lon="2.48579">
        <ele>374</ele>
        <time>2009-05-19T13:35:10Z</time>
      </trkpt>
      <trkpt lat="44.48583" lon="2.48588">
        <ele>374</ele>
        <time>2009-05-19T13:35:21Z</time>
      </trkpt>
      <trkpt lat="44.48579" lon="2.486">
        <ele>367</ele>
        <time>2009-05-19T13:35:38Z</time>
      </trkpt>
      <trkpt lat="44.48572" lon="2.4861">
        <ele>367</ele>
        <time>2009-05-19T13:35:49Z</time>
      </trkpt>
      <trkpt lat="44.48567" lon="2.48621">
        <ele>358</ele>
        <time>2009-05-19T13:36:01Z</time>
      </trkpt>
      <trkpt lat="44.4856" lon="2.4863">
        <ele>358</ele>
        <time>2009-05-19T13:36:13Z</time>
      </trkpt>
      <trkpt lat="44.48554" lon="2.48641">
        <ele>358</ele>
        <time>2009-05-19T13:36:28Z</time>
      </trkpt>
      <trkpt lat="44.48551" lon="2.48654">
        <ele>358</ele>
        <time>2009-05-19T13:36:55Z</time>
      </trkpt>
      <trkpt lat="44.48543" lon="2.48662">
        <ele>358</ele>
        <time>2009-05-19T13:37:08Z</time>
      </trkpt>
      <trkpt lat="44.48536" lon="2.48671">
        <ele>352</ele>
        <time>2009-05-19T13:37:21Z</time>
      </trkpt>
      <trkpt lat="44.4854" lon="2.48682">
        <ele>352</ele>
        <time>2009-05-19T13:38:27Z</time>
      </trkpt>
      <trkpt lat="44.48531" lon="2.48687">
        <ele>352</ele>
        <time>2009-05-19T13:41:38Z</time>
      </trkpt>
      <trkpt lat="44.48524" lon="2.48697">
        <ele>352</ele>
        <time>2009-05-19T13:41:47Z</time>
      </trkpt>
      <trkpt lat="44.4852" lon="2.48709">
        <ele>352</ele>
        <time>2009-05-19T13:41:54Z</time>
      </trkpt>
      <trkpt lat="44.48518" lon="2.48723">
        <ele>346</ele>
        <time>2009-05-19T13:42:01Z</time>
      </trkpt>
      <trkpt lat="44.48514" lon="2.48735">
        <ele>346</ele>
        <time>2009-05-19T13:42:10Z</time>
      </trkpt>
      <trkpt lat="44.48509" lon="2.48747">
        <ele>346</ele>
        <time>2009-05-19T13:42:27Z</time>
      </trkpt>
      <trkpt lat="44.48502" lon="2.48756">
        <ele>346</ele>
        <time>2009-05-19T13:42:41Z</time>
      </trkpt>
      <trkpt lat="44.48492" lon="2.48761">
        <ele>346</ele>
        <time>2009-05-19T13:42:52Z</time>
      </trkpt>
      <trkpt lat="44.48482" lon="2.48762">
        <ele>346</ele>
        <time>2009-05-19T13:43:00Z</time>
      </trkpt>
      <trkpt lat="44.48473" lon="2.48758">
        <ele>340</ele>
        <time>2009-05-19T13:43:11Z</time>
      </trkpt>
      <trkpt lat="44.48463" lon="2.48757">
        <ele>340</ele>
        <time>2009-05-19T13:43:20Z</time>
      </trkpt>
      <trkpt lat="44.48454" lon="2.48752">
        <ele>340</ele>
        <time>2009-05-19T13:43:29Z</time>
      </trkpt>
      <trkpt lat="44.48445" lon="2.48747">
        <ele>340</ele>
        <time>2009-05-19T13:43:37Z</time>
      </trkpt>
      <trkpt lat="44.48436" lon="2.48744">
        <ele>340</ele>
        <time>2009-05-19T13:43:45Z</time>
      </trkpt>
      <trkpt lat="44.48427" lon="2.48739">
        <ele>340</ele>
        <time>2009-05-19T13:43:55Z</time>
      </trkpt>
      <trkpt lat="44.48418" lon="2.48735">
        <ele>335</ele>
        <time>2009-05-19T13:44:03Z</time>
      </trkpt>
      <trkpt lat="44.48408" lon="2.48732">
        <ele>335</ele>
        <time>2009-05-19T13:44:11Z</time>
      </trkpt>
      <trkpt lat="44.48399" lon="2.48728">
        <ele>335</ele>
        <time>2009-05-19T13:44:19Z</time>
      </trkpt>
      <trkpt lat="44.4839" lon="2.48723">
        <ele>335</ele>
        <time>2009-05-19T13:44:31Z</time>
      </trkpt>
      <trkpt lat="44.48381" lon="2.48719">
        <ele>342</ele>
        <time>2009-05-19T13:44:39Z</time>
      </trkpt>
      <trkpt lat="44.48371" lon="2.48716">
        <ele>342</ele>
        <time>2009-05-19T13:44:50Z</time>
      </trkpt>
      <trkpt lat="44.48362" lon="2.48711">
        <ele>342</ele>
        <time>2009-05-19T13:44:58Z</time>
      </trkpt>
      <trkpt lat="44.48353" lon="2.48708">
        <ele>342</ele>
        <time>2009-05-19T13:45:05Z</time>
      </trkpt>
      <trkpt lat="44.48344" lon="2.48704">
        <ele>342</ele>
        <time>2009-05-19T13:45:14Z</time>
      </trkpt>
      <trkpt lat="44.48335" lon="2.48699">
        <ele>342</ele>
        <time>2009-05-19T13:45:34Z</time>
      </trkpt>
      <trkpt lat="44.48325" lon="2.48694">
        <ele>342</ele>
        <time>2009-05-19T13:45:51Z</time>
      </trkpt>
      <trkpt lat="44.48315" lon="2.4869">
        <ele>342</ele>
        <time>2009-05-19T13:46:24Z</time>
      </trkpt>
      <trkpt lat="44.48306" lon="2.48684">
        <ele>342</ele>
        <time>2009-05-19T13:46:31Z</time>
      </trkpt>
      <trkpt lat="44.48295" lon="2.4868">
        <ele>342</ele>
        <time>2009-05-19T13:46:38Z</time>
      </trkpt>
      <trkpt lat="44.48286" lon="2.48674">
        <ele>342</ele>
        <time>2009-05-19T13:46:44Z</time>
      </trkpt>
      <trkpt lat="44.48277" lon="2.48667">
        <ele>335</ele>
        <time>2009-05-19T13:46:51Z</time>
      </trkpt>
      <trkpt lat="44.48269" lon="2.48661">
        <ele>335</ele>
        <time>2009-05-19T13:46:57Z</time>
      </trkpt>
      <trkpt lat="44.4826" lon="2.48656">
        <ele>335</ele>
        <time>2009-05-19T13:47:04Z</time>
      </trkpt>
      <trkpt lat="44.48251" lon="2.4865">
        <ele>335</ele>
        <time>2009-05-19T13:47:11Z</time>
      </trkpt>
      <trkpt lat="44.48242" lon="2.48644">
        <ele>330</ele>
        <time>2009-05-19T13:47:19Z</time>
      </trkpt>
      <trkpt lat="44.48232" lon="2.48642">
        <ele>330</ele>
        <time>2009-05-19T13:47:25Z</time>
      </trkpt>
      <trkpt lat="44.48223" lon="2.48637">
        <ele>330</ele>
        <time>2009-05-19T13:47:33Z</time>
      </trkpt>
      <trkpt lat="44.48213" lon="2.4863">
        <ele>330</ele>
        <time>2009-05-19T13:47:41Z</time>
      </trkpt>
      <trkpt lat="44.48203" lon="2.48626">
        <ele>330</ele>
        <time>2009-05-19T13:47:51Z</time>
      </trkpt>
      <trkpt lat="44.48193" lon="2.48625">
        <ele>330</ele>
        <time>2009-05-19T13:47:59Z</time>
      </trkpt>
      <trkpt lat="44.48183" lon="2.48622">
        <ele>330</ele>
        <time>2009-05-19T13:48:07Z</time>
      </trkpt>
      <trkpt lat="44.48174" lon="2.4862">
        <ele>330</ele>
        <time>2009-05-19T13:48:15Z</time>
      </trkpt>
      <trkpt lat="44.48164" lon="2.48616">
        <ele>330</ele>
        <time>2009-05-19T13:48:24Z</time>
      </trkpt>
      <trkpt lat="44.48154" lon="2.48614">
        <ele>330</ele>
        <time>2009-05-19T13:48:34Z</time>
      </trkpt>
      <trkpt lat="44.48144" lon="2.48614">
        <ele>330</ele>
        <time>2009-05-19T13:48:43Z</time>
      </trkpt>
      <trkpt lat="44.48135" lon="2.48615">
        <ele>330</ele>
        <time>2009-05-19T13:48:51Z</time>
      </trkpt>
      <trkpt lat="44.48125" lon="2.48616">
        <ele>330</ele>
        <time>2009-05-19T13:48:59Z</time>
      </trkpt>
      <trkpt lat="44.48115" lon="2.48617">
        <ele>330</ele>
        <time>2009-05-19T13:49:06Z</time>
      </trkpt>
      <trkpt lat="44.48105" lon="2.4862">
        <ele>330</ele>
        <time>2009-05-19T13:49:14Z</time>
      </trkpt>
      <trkpt lat="44.48095" lon="2.48622">
        <ele>330</ele>
        <time>2009-05-19T13:49:22Z</time>
      </trkpt>
      <trkpt lat="44.48086" lon="2.48624">
        <ele>330</ele>
        <time>2009-05-19T13:49:29Z</time>
      </trkpt>
      <trkpt lat="44.48076" lon="2.48627">
        <ele>330</ele>
        <time>2009-05-19T13:49:38Z</time>
      </trkpt>
      <trkpt lat="44.48066" lon="2.48629">
        <ele>330</ele>
        <time>2009-05-19T13:49:45Z</time>
      </trkpt>
      <trkpt lat="44.48057" lon="2.48633">
        <ele>336</ele>
        <time>2009-05-19T13:49:55Z</time>
      </trkpt>
      <trkpt lat="44.48047" lon="2.48634">
        <ele>336</ele>
        <time>2009-05-19T13:50:02Z</time>
      </trkpt>
      <trkpt lat="44.48038" lon="2.48639">
        <ele>336</ele>
        <time>2009-05-19T13:50:09Z</time>
      </trkpt>
      <trkpt lat="44.48028" lon="2.48644">
        <ele>330</ele>
        <time>2009-05-19T13:50:16Z</time>
      </trkpt>
      <trkpt lat="44.4802" lon="2.4865">
        <ele>330</ele>
        <time>2009-05-19T13:50:24Z</time>
      </trkpt>
      <trkpt lat="44.4801" lon="2.48654">
        <ele>330</ele>
        <time>2009-05-19T13:50:33Z</time>
      </trkpt>
      <trkpt lat="44.48001" lon="2.48659">
        <ele>330</ele>
        <time>2009-05-19T13:50:43Z</time>
      </trkpt>
      <trkpt lat="44.47992" lon="2.48666">
        <ele>324</ele>
        <time>2009-05-19T13:50:50Z</time>
      </trkpt>
      <trkpt lat="44.47983" lon="2.48674">
        <ele>324</ele>
        <time>2009-05-19T13:50:58Z</time>
      </trkpt>
      <trkpt lat="44.47974" lon="2.4868">
        <ele>324</ele>
        <time>2009-05-19T13:51:07Z</time>
      </trkpt>
      <trkpt lat="44.47964" lon="2.48685">
        <ele>324</ele>
        <time>2009-05-19T13:51:15Z</time>
      </trkpt>
      <trkpt lat="44.47954" lon="2.48688">
        <ele>324</ele>
        <time>2009-05-19T13:51:24Z</time>
      </trkpt>
      <trkpt lat="44.47945" lon="2.48691">
        <ele>324</ele>
        <time>2009-05-19T13:51:32Z</time>
      </trkpt>
      <trkpt lat="44.47935" lon="2.48692">
        <ele>324</ele>
        <time>2009-05-19T13:51:40Z</time>
      </trkpt>
      <trkpt lat="44.47925" lon="2.48694">
        <ele>324</ele>
        <time>2009-05-19T13:51:48Z</time>
      </trkpt>
      <trkpt lat="44.47915" lon="2.48694">
        <ele>324</ele>
        <time>2009-05-19T13:51:56Z</time>
      </trkpt>
      <trkpt lat="44.47905" lon="2.48697">
        <ele>316</ele>
        <time>2009-05-19T13:52:03Z</time>
      </trkpt>
      <trkpt lat="44.47895" lon="2.48699">
        <ele>316</ele>
        <time>2009-05-19T13:52:12Z</time>
      </trkpt>
      <trkpt lat="44.47885" lon="2.487">
        <ele>316</ele>
        <time>2009-05-19T13:52:21Z</time>
      </trkpt>
      <trkpt lat="44.47875" lon="2.48702">
        <ele>316</ele>
        <time>2009-05-19T13:52:30Z</time>
      </trkpt>
      <trkpt lat="44.47866" lon="2.48702">
        <ele>316</ele>
        <time>2009-05-19T13:52:40Z</time>
      </trkpt>
      <trkpt lat="44.47855" lon="2.48702">
        <ele>316</ele>
        <time>2009-05-19T13:52:49Z</time>
      </trkpt>
      <trkpt lat="44.47846" lon="2.48703">
        <ele>316</ele>
        <time>2009-05-19T13:52:57Z</time>
      </trkpt>
      <trkpt lat="44.47835" lon="2.48702">
        <ele>316</ele>
        <time>2009-05-19T13:53:06Z</time>
      </trkpt>
      <trkpt lat="44.47825" lon="2.48702">
        <ele>316</ele>
        <time>2009-05-19T13:53:15Z</time>
      </trkpt>
      <trkpt lat="44.47815" lon="2.48701">
        <ele>316</ele>
        <time>2009-05-19T13:53:24Z</time>
      </trkpt>
      <trkpt lat="44.47805" lon="2.48701">
        <ele>316</ele>
        <time>2009-05-19T13:53:33Z</time>
      </trkpt>
      <trkpt lat="44.47794" lon="2.487">
        <ele>316</ele>
        <time>2009-05-19T13:53:42Z</time>
      </trkpt>
      <trkpt lat="44.47785" lon="2.48699">
        <ele>316</ele>
        <time>2009-05-19T13:53:51Z</time>
      </trkpt>
      <trkpt lat="44.47775" lon="2.48697">
        <ele>316</ele>
        <time>2009-05-19T13:53:59Z</time>
      </trkpt>
      <trkpt lat="44.47765" lon="2.48694">
        <ele>316</ele>
        <time>2009-05-19T13:54:07Z</time>
      </trkpt>
      <trkpt lat="44.47756" lon="2.48687">
        <ele>316</ele>
        <time>2009-05-19T13:54:16Z</time>
      </trkpt>
      <trkpt lat="44.47747" lon="2.48678">
        <ele>309</ele>
        <time>2009-05-19T13:54:29Z</time>
      </trkpt>
      <trkpt lat="44.47738" lon="2.48673">
        <ele>309</ele>
        <time>2009-05-19T13:54:37Z</time>
      </trkpt>
      <trkpt lat="44.47729" lon="2.48668">
        <ele>309</ele>
        <time>2009-05-19T13:54:45Z</time>
      </trkpt>
      <trkpt lat="44.47722" lon="2.4866">
        <ele>309</ele>
        <time>2009-05-19T13:54:53Z</time>
      </trkpt>
      <trkpt lat="44.47715" lon="2.4865">
        <ele>309</ele>
        <time>2009-05-19T13:55:02Z</time>
      </trkpt>
      <trkpt lat="44.47709" lon="2.48638">
        <ele>309</ele>
        <time>2009-05-19T13:55:11Z</time>
      </trkpt>
      <trkpt lat="44.47704" lon="2.48626">
        <ele>309</ele>
        <time>2009-05-19T13:55:20Z</time>
      </trkpt>
      <trkpt lat="44.47699" lon="2.48612">
        <ele>309</ele>
        <time>2009-05-19T13:55:29Z</time>
      </trkpt>
      <trkpt lat="44.47696" lon="2.486">
        <ele>309</ele>
        <time>2009-05-19T13:55:37Z</time>
      </trkpt>
      <trkpt lat="44.47692" lon="2.48587">
        <ele>303</ele>
        <time>2009-05-19T13:55:45Z</time>
      </trkpt>
      <trkpt lat="44.47689" lon="2.48574">
        <ele>303</ele>
        <time>2009-05-19T13:55:53Z</time>
      </trkpt>
      <trkpt lat="44.47684" lon="2.48562">
        <ele>303</ele>
        <time>2009-05-19T13:56:01Z</time>
      </trkpt>
      <trkpt lat="44.4768" lon="2.4855">
        <ele>303</ele>
        <time>2009-05-19T13:56:09Z</time>
      </trkpt>
      <trkpt lat="44.47678" lon="2.48537">
        <ele>303</ele>
        <time>2009-05-19T13:56:17Z</time>
      </trkpt>
      <trkpt lat="44.47674" lon="2.48523">
        <ele>303</ele>
        <time>2009-05-19T13:56:26Z</time>
      </trkpt>
      <trkpt lat="44.47671" lon="2.48511">
        <ele>303</ele>
        <time>2009-05-19T13:56:34Z</time>
      </trkpt>
      <trkpt lat="44.47667" lon="2.48497">
        <ele>303</ele>
        <time>2009-05-19T13:56:43Z</time>
      </trkpt>
      <trkpt lat="44.47664" lon="2.48485">
        <ele>303</ele>
        <time>2009-05-19T13:56:51Z</time>
      </trkpt>
      <trkpt lat="44.47661" lon="2.48472">
        <ele>303</ele>
        <time>2009-05-19T13:56:59Z</time>
      </trkpt>
      <trkpt lat="44.47659" lon="2.4846">
        <ele>303</ele>
        <time>2009-05-19T13:57:07Z</time>
      </trkpt>
      <trkpt lat="44.47657" lon="2.48446">
        <ele>303</ele>
        <time>2009-05-19T13:57:15Z</time>
      </trkpt>
      <trkpt lat="44.47655" lon="2.48433">
        <ele>303</ele>
        <time>2009-05-19T13:57:23Z</time>
      </trkpt>
      <trkpt lat="44.47652" lon="2.48419">
        <ele>303</ele>
        <time>2009-05-19T13:57:31Z</time>
      </trkpt>
      <trkpt lat="44.4765" lon="2.48405">
        <ele>303</ele>
        <time>2009-05-19T13:57:41Z</time>
      </trkpt>
      <trkpt lat="44.4765" lon="2.48391">
        <ele>303</ele>
        <time>2009-05-19T13:57:53Z</time>
      </trkpt>
      <trkpt lat="44.47648" lon="2.48378">
        <ele>303</ele>
        <time>2009-05-19T13:58:01Z</time>
      </trkpt>
      <trkpt lat="44.47646" lon="2.48364">
        <ele>303</ele>
        <time>2009-05-19T13:58:09Z</time>
      </trkpt>
      <trkpt lat="44.47644" lon="2.4835">
        <ele>303</ele>
        <time>2009-05-19T13:58:18Z</time>
      </trkpt>
      <trkpt lat="44.47644" lon="2.48336">
        <ele>303</ele>
        <time>2009-05-19T13:58:26Z</time>
      </trkpt>
      <trkpt lat="44.47644" lon="2.48322">
        <ele>303</ele>
        <time>2009-05-19T13:58:34Z</time>
      </trkpt>
      <trkpt lat="44.47644" lon="2.48309">
        <ele>303</ele>
        <time>2009-05-19T13:58:42Z</time>
      </trkpt>
      <trkpt lat="44.47643" lon="2.48295">
        <ele>303</ele>
        <time>2009-05-19T13:58:50Z</time>
      </trkpt>
      <trkpt lat="44.47643" lon="2.48282">
        <ele>303</ele>
        <time>2009-05-19T13:58:58Z</time>
      </trkpt>
      <trkpt lat="44.47642" lon="2.48268">
        <ele>303</ele>
        <time>2009-05-19T13:59:06Z</time>
      </trkpt>
      <trkpt lat="44.47641" lon="2.48255">
        <ele>303</ele>
        <time>2009-05-19T13:59:15Z</time>
      </trkpt>
      <trkpt lat="44.47639" lon="2.48241">
        <ele>303</ele>
        <time>2009-05-19T13:59:24Z</time>
      </trkpt>
      <trkpt lat="44.47639" lon="2.48228">
        <ele>303</ele>
        <time>2009-05-19T13:59:32Z</time>
      </trkpt>
      <trkpt lat="44.47637" lon="2.48214">
        <ele>303</ele>
        <time>2009-05-19T13:59:41Z</time>
      </trkpt>
      <trkpt lat="44.47636" lon="2.48201">
        <ele>303</ele>
        <time>2009-05-19T13:59:49Z</time>
      </trkpt>
      <trkpt lat="44.47636" lon="2.48187">
        <ele>303</ele>
        <time>2009-05-19T13:59:57Z</time>
      </trkpt>
      <trkpt lat="44.47635" lon="2.48173">
        <ele>303</ele>
        <time>2009-05-19T14:00:06Z</time>
      </trkpt>
      <trkpt lat="44.47635" lon="2.4816">
        <ele>303</ele>
        <time>2009-05-19T14:00:14Z</time>
      </trkpt>
      <trkpt lat="44.47635" lon="2.48146">
        <ele>303</ele>
        <time>2009-05-19T14:00:22Z</time>
      </trkpt>
      <trkpt lat="44.47634" lon="2.48132">
        <ele>303</ele>
        <time>2009-05-19T14:00:31Z</time>
      </trkpt>
      <trkpt lat="44.47633" lon="2.48118">
        <ele>303</ele>
        <time>2009-05-19T14:00:40Z</time>
      </trkpt>
      <trkpt lat="44.4763" lon="2.48105">
        <ele>308</ele>
        <time>2009-05-19T14:00:48Z</time>
      </trkpt>
      <trkpt lat="44.47625" lon="2.48091">
        <ele>308</ele>
        <time>2009-05-19T14:00:57Z</time>
      </trkpt>
      <trkpt lat="44.47621" lon="2.48079">
        <ele>308</ele>
        <time>2009-05-19T14:01:05Z</time>
      </trkpt>
      <trkpt lat="44.47616" lon="2.48067">
        <ele>314</ele>
        <time>2009-05-19T14:01:15Z</time>
      </trkpt>
      <trkpt lat="44.47612" lon="2.48055">
        <ele>314</ele>
        <time>2009-05-19T14:01:25Z</time>
      </trkpt>
      <trkpt lat="44.47605" lon="2.48043">
        <ele>303</ele>
        <time>2009-05-19T14:01:38Z</time>
      </trkpt>
      <trkpt lat="44.47607" lon="2.48028">
        <ele>303</ele>
        <time>2009-05-19T14:01:46Z</time>
      </trkpt>
      <trkpt lat="44.47611" lon="2.48015">
        <ele>303</ele>
        <time>2009-05-19T14:01:54Z</time>
      </trkpt>
      <trkpt lat="44.47614" lon="2.48002">
        <ele>303</ele>
        <time>2009-05-19T14:02:01Z</time>
      </trkpt>
      <trkpt lat="44.47619" lon="2.47991">
        <ele>308</ele>
        <time>2009-05-19T14:02:08Z</time>
      </trkpt>
      <trkpt lat="44.47621" lon="2.47977">
        <ele>308</ele>
        <time>2009-05-19T14:02:16Z</time>
      </trkpt>
      <trkpt lat="44.47625" lon="2.47964">
        <ele>308</ele>
        <time>2009-05-19T14:02:24Z</time>
      </trkpt>
      <trkpt lat="44.47627" lon="2.4795">
        <ele>316</ele>
        <time>2009-05-19T14:02:33Z</time>
      </trkpt>
      <trkpt lat="44.47628" lon="2.47937">
        <ele>316</ele>
        <time>2009-05-19T14:02:42Z</time>
      </trkpt>
      <trkpt lat="44.4763" lon="2.47923">
        <ele>316</ele>
        <time>2009-05-19T14:02:51Z</time>
      </trkpt>
      <trkpt lat="44.47631" lon="2.4791">
        <ele>322</ele>
        <time>2009-05-19T14:03:00Z</time>
      </trkpt>
      <trkpt lat="44.47632" lon="2.47896">
        <ele>328</ele>
        <time>2009-05-19T14:03:07Z</time>
      </trkpt>
      <trkpt lat="44.47633" lon="2.47883">
        <ele>328</ele>
        <time>2009-05-19T14:03:15Z</time>
      </trkpt>
      <trkpt lat="44.47632" lon="2.47869">
        <ele>328</ele>
        <time>2009-05-19T14:03:23Z</time>
      </trkpt>
      <trkpt lat="44.4763" lon="2.47856">
        <ele>328</ele>
        <time>2009-05-19T14:03:31Z</time>
      </trkpt>
      <trkpt lat="44.47631" lon="2.47842">
        <ele>328</ele>
        <time>2009-05-19T14:03:39Z</time>
      </trkpt>
      <trkpt lat="44.4763" lon="2.47828">
        <ele>328</ele>
        <time>2009-05-19T14:03:47Z</time>
      </trkpt>
      <trkpt lat="44.4763" lon="2.47814">
        <ele>328</ele>
        <time>2009-05-19T14:03:55Z</time>
      </trkpt>
      <trkpt lat="44.4763" lon="2.47799">
        <ele>334</ele>
        <time>2009-05-19T14:04:03Z</time>
      </trkpt>
      <trkpt lat="44.4763" lon="2.47786">
        <ele>334</ele>
        <time>2009-05-19T14:04:11Z</time>
      </trkpt>
      <trkpt lat="44.47627" lon="2.47773">
        <ele>334</ele>
        <time>2009-05-19T14:04:19Z</time>
      </trkpt>
      <trkpt lat="44.47625" lon="2.4776">
        <ele>334</ele>
        <time>2009-05-19T14:04:27Z</time>
      </trkpt>
      <trkpt lat="44.47621" lon="2.47747">
        <ele>322</ele>
        <time>2009-05-19T14:04:35Z</time>
      </trkpt>
      <trkpt lat="44.47618" lon="2.47735">
        <ele>322</ele>
        <time>2009-05-19T14:04:43Z</time>
      </trkpt>
      <trkpt lat="44.47616" lon="2.47721">
        <ele>322</ele>
        <time>2009-05-19T14:04:51Z</time>
      </trkpt>
      <trkpt lat="44.47614" lon="2.47708">
        <ele>322</ele>
        <time>2009-05-19T14:05:00Z</time>
      </trkpt>
      <trkpt lat="44.47612" lon="2.47693">
        <ele>329</ele>
        <time>2009-05-19T14:05:10Z</time>
      </trkpt>
      <trkpt lat="44.4761" lon="2.4768">
        <ele>329</ele>
        <time>2009-05-19T14:05:18Z</time>
      </trkpt>
      <trkpt lat="44.47607" lon="2.47666">
        <ele>337</ele>
        <time>2009-05-19T14:05:26Z</time>
      </trkpt>
      <trkpt lat="44.47605" lon="2.47652">
        <ele>337</ele>
        <time>2009-05-19T14:05:35Z</time>
      </trkpt>
      <trkpt lat="44.476" lon="2.4764">
        <ele>322</ele>
        <time>2009-05-19T14:05:42Z</time>
      </trkpt>
      <trkpt lat="44.47596" lon="2.47627">
        <ele>311</ele>
        <time>2009-05-19T14:05:50Z</time>
      </trkpt>
      <trkpt lat="44.47592" lon="2.47613">
        <ele>304</ele>
        <time>2009-05-19T14:05:58Z</time>
      </trkpt>
      <trkpt lat="44.47587" lon="2.47601">
        <ele>297</ele>
        <time>2009-05-19T14:06:06Z</time>
      </trkpt>
      <trkpt lat="44.47583" lon="2.47587">
        <ele>297</ele>
        <time>2009-05-19T14:06:15Z</time>
      </trkpt>
      <trkpt lat="44.47578" lon="2.47574">
        <ele>297</ele>
        <time>2009-05-19T14:06:24Z</time>
      </trkpt>
      <trkpt lat="44.47575" lon="2.4756">
        <ele>297</ele>
        <time>2009-05-19T14:06:34Z</time>
      </trkpt>
      <trkpt lat="44.4757" lon="2.47548">
        <ele>297</ele>
        <time>2009-05-19T14:06:42Z</time>
      </trkpt>
      <trkpt lat="44.47567" lon="2.47535">
        <ele>303</ele>
        <time>2009-05-19T14:06:50Z</time>
      </trkpt>
      <trkpt lat="44.47563" lon="2.47522">
        <ele>303</ele>
        <time>2009-05-19T14:06:58Z</time>
      </trkpt>
      <trkpt lat="44.4756" lon="2.47508">
        <ele>298</ele>
        <time>2009-05-19T14:07:07Z</time>
      </trkpt>
      <trkpt lat="44.47555" lon="2.47496">
        <ele>298</ele>
        <time>2009-05-19T14:07:17Z</time>
      </trkpt>
      <trkpt lat="44.47551" lon="2.47482">
        <ele>298</ele>
        <time>2009-05-19T14:07:26Z</time>
      </trkpt>
      <trkpt lat="44.47549" lon="2.47468">
        <ele>298</ele>
        <time>2009-05-19T14:07:37Z</time>
      </trkpt>
      <trkpt lat="44.47552" lon="2.47455">
        <ele>304</ele>
        <time>2009-05-19T14:07:45Z</time>
      </trkpt>
      <trkpt lat="44.47552" lon="2.47441">
        <ele>304</ele>
        <time>2009-05-19T14:07:55Z</time>
      </trkpt>
      <trkpt lat="44.47552" lon="2.47427">
        <ele>304</ele>
        <time>2009-05-19T14:08:04Z</time>
      </trkpt>
      <trkpt lat="44.47553" lon="2.47413">
        <ele>304</ele>
        <time>2009-05-19T14:08:12Z</time>
      </trkpt>
      <trkpt lat="44.47553" lon="2.47399">
        <ele>298</ele>
        <time>2009-05-19T14:08:21Z</time>
      </trkpt>
      <trkpt lat="44.47553" lon="2.47385">
        <ele>298</ele>
        <time>2009-05-19T14:08:29Z</time>
      </trkpt>
      <trkpt lat="44.47554" lon="2.47372">
        <ele>298</ele>
        <time>2009-05-19T14:08:37Z</time>
      </trkpt>
      <trkpt lat="44.47556" lon="2.47358">
        <ele>306</ele>
        <time>2009-05-19T14:08:45Z</time>
      </trkpt>
      <trkpt lat="44.47559" lon="2.47345">
        <ele>306</ele>
        <time>2009-05-19T14:08:53Z</time>
      </trkpt>
      <trkpt lat="44.47562" lon="2.47332">
        <ele>306</ele>
        <time>2009-05-19T14:09:01Z</time>
      </trkpt>
      <trkpt lat="44.47565" lon="2.4732">
        <ele>316</ele>
        <time>2009-05-19T14:09:09Z</time>
      </trkpt>
      <trkpt lat="44.47567" lon="2.47307">
        <ele>325</ele>
        <time>2009-05-19T14:09:17Z</time>
      </trkpt>
      <trkpt lat="44.47569" lon="2.47294">
        <ele>334</ele>
        <time>2009-05-19T14:09:25Z</time>
      </trkpt>
      <trkpt lat="44.47571" lon="2.4728">
        <ele>334</ele>
        <time>2009-05-19T14:09:35Z</time>
      </trkpt>
      <trkpt lat="44.47563" lon="2.47272">
        <ele>290</ele>
        <time>2009-05-19T14:10:39Z</time>
      </trkpt>
      <trkpt lat="44.47569" lon="2.47261">
        <ele>296</ele>
        <time>2009-05-19T14:16:12Z</time>
      </trkpt>
      <trkpt lat="44.47574" lon="2.47249">
        <ele>302</ele>
        <time>2009-05-19T14:16:22Z</time>
      </trkpt>
      <trkpt lat="44.47576" lon="2.47235">
        <ele>302</ele>
        <time>2009-05-19T14:16:31Z</time>
      </trkpt>
      <trkpt lat="44.47578" lon="2.47222">
        <ele>308</ele>
        <time>2009-05-19T14:16:40Z</time>
      </trkpt>
      <trkpt lat="44.47578" lon="2.47208">
        <ele>308</ele>
        <time>2009-05-19T14:16:48Z</time>
      </trkpt>
      <trkpt lat="44.47577" lon="2.47194">
        <ele>313</ele>
        <time>2009-05-19T14:16:57Z</time>
      </trkpt>
      <trkpt lat="44.47575" lon="2.4718">
        <ele>307</ele>
        <time>2009-05-19T14:17:07Z</time>
      </trkpt>
      <trkpt lat="44.47572" lon="2.47168">
        <ele>302</ele>
        <time>2009-05-19T14:17:15Z</time>
      </trkpt>
      <trkpt lat="44.47569" lon="2.47155">
        <ele>302</ele>
        <time>2009-05-19T14:17:23Z</time>
      </trkpt>
      <trkpt lat="44.4757" lon="2.47141">
        <ele>307</ele>
        <time>2009-05-19T14:17:32Z</time>
      </trkpt>
      <trkpt lat="44.4757" lon="2.47127">
        <ele>307</ele>
        <time>2009-05-19T14:17:41Z</time>
      </trkpt>
      <trkpt lat="44.47569" lon="2.47112">
        <ele>307</ele>
        <time>2009-05-19T14:17:50Z</time>
      </trkpt>
      <trkpt lat="44.47567" lon="2.47098">
        <ele>307</ele>
        <time>2009-05-19T14:17:59Z</time>
      </trkpt>
      <trkpt lat="44.47568" lon="2.47083">
        <ele>307</ele>
        <time>2009-05-19T14:18:09Z</time>
      </trkpt>
      <trkpt lat="44.47566" lon="2.4707">
        <ele>302</ele>
        <time>2009-05-19T14:18:17Z</time>
      </trkpt>
      <trkpt lat="44.47565" lon="2.47056">
        <ele>302</ele>
        <time>2009-05-19T14:18:26Z</time>
      </trkpt>
      <trkpt lat="44.47563" lon="2.47041">
        <ele>302</ele>
        <time>2009-05-19T14:18:35Z</time>
      </trkpt>
      <trkpt lat="44.47559" lon="2.47029">
        <ele>302</ele>
        <time>2009-05-19T14:18:43Z</time>
      </trkpt>
      <trkpt lat="44.47555" lon="2.47016">
        <ele>294</ele>
        <time>2009-05-19T14:18:51Z</time>
      </trkpt>
      <trkpt lat="44.47551" lon="2.47004">
        <ele>294</ele>
        <time>2009-05-19T14:19:00Z</time>
      </trkpt>
      <trkpt lat="44.47547" lon="2.46992">
        <ele>294</ele>
        <time>2009-05-19T14:19:09Z</time>
      </trkpt>
      <trkpt lat="44.47545" lon="2.46978">
        <ele>294</ele>
        <time>2009-05-19T14:19:19Z</time>
      </trkpt>
      <trkpt lat="44.47542" lon="2.46965">
        <ele>294</ele>
        <time>2009-05-19T14:19:28Z</time>
      </trkpt>
      <trkpt lat="44.47538" lon="2.46952">
        <ele>294</ele>
        <time>2009-05-19T14:19:36Z</time>
      </trkpt>
      <trkpt lat="44.47534" lon="2.4694">
        <ele>294</ele>
        <time>2009-05-19T14:19:45Z</time>
      </trkpt>
      <trkpt lat="44.47532" lon="2.46927">
        <ele>294</ele>
        <time>2009-05-19T14:19:53Z</time>
      </trkpt>
      <trkpt lat="44.47529" lon="2.46915">
        <ele>294</ele>
        <time>2009-05-19T14:20:02Z</time>
      </trkpt>
      <trkpt lat="44.47527" lon="2.46901">
        <ele>294</ele>
        <time>2009-05-19T14:20:11Z</time>
      </trkpt>
      <trkpt lat="44.47525" lon="2.46888">
        <ele>294</ele>
        <time>2009-05-19T14:20:21Z</time>
      </trkpt>
      <trkpt lat="44.47523" lon="2.46874">
        <ele>294</ele>
        <time>2009-05-19T14:20:31Z</time>
      </trkpt>
      <trkpt lat="44.47518" lon="2.46861">
        <ele>294</ele>
        <time>2009-05-19T14:20:41Z</time>
      </trkpt>
      <trkpt lat="44.47515" lon="2.46848">
        <ele>294</ele>
        <time>2009-05-19T14:20:50Z</time>
      </trkpt>
      <trkpt lat="44.47512" lon="2.46835">
        <ele>299</ele>
        <time>2009-05-19T14:20:59Z</time>
      </trkpt>
      <trkpt lat="44.47509" lon="2.46822">
        <ele>308</ele>
        <time>2009-05-19T14:21:08Z</time>
      </trkpt>
      <trkpt lat="44.47508" lon="2.46809">
        <ele>317</ele>
        <time>2009-05-19T14:21:18Z</time>
      </trkpt>
      <trkpt lat="44.47506" lon="2.46795">
        <ele>323</ele>
        <time>2009-05-19T14:21:27Z</time>
      </trkpt>
      <trkpt lat="44.47503" lon="2.46783">
        <ele>329</ele>
        <time>2009-05-19T14:21:38Z</time>
      </trkpt>
      <trkpt lat="44.47498" lon="2.46771">
        <ele>321</ele>
        <time>2009-05-19T14:21:48Z</time>
      </trkpt>
      <trkpt lat="44.47494" lon="2.46757">
        <ele>321</ele>
        <time>2009-05-19T14:21:58Z</time>
      </trkpt>
      <trkpt lat="44.47488" lon="2.46747">
        <ele>305</ele>
        <time>2009-05-19T14:22:05Z</time>
      </trkpt>
      <trkpt lat="44.47484" lon="2.46734">
        <ele>305</ele>
        <time>2009-05-19T14:22:14Z</time>
      </trkpt>
      <trkpt lat="44.47481" lon="2.46721">
        <ele>313</ele>
        <time>2009-05-19T14:22:22Z</time>
      </trkpt>
      <trkpt lat="44.47477" lon="2.46709">
        <ele>307</ele>
        <time>2009-05-19T14:22:30Z</time>
      </trkpt>
      <trkpt lat="44.47473" lon="2.46696">
        <ele>307</ele>
        <time>2009-05-19T14:22:38Z</time>
      </trkpt>
      <trkpt lat="44.47468" lon="2.46685">
        <ele>307</ele>
        <time>2009-05-19T14:22:46Z</time>
      </trkpt>
      <trkpt lat="44.47466" lon="2.46671">
        <ele>307</ele>
        <time>2009-05-19T14:22:56Z</time>
      </trkpt>
      <trkpt lat="44.47461" lon="2.46659">
        <ele>314</ele>
        <time>2009-05-19T14:23:04Z</time>
      </trkpt>
      <trkpt lat="44.47457" lon="2.46647">
        <ele>298</ele>
        <time>2009-05-19T14:23:20Z</time>
      </trkpt>
      <trkpt lat="44.47452" lon="2.46634">
        <ele>291</ele>
        <time>2009-05-19T14:23:29Z</time>
      </trkpt>
      <trkpt lat="44.47449" lon="2.46621">
        <ele>291</ele>
        <time>2009-05-19T14:23:37Z</time>
      </trkpt>
      <trkpt lat="44.47444" lon="2.46609">
        <ele>291</ele>
        <time>2009-05-19T14:23:45Z</time>
      </trkpt>
      <trkpt lat="44.47435" lon="2.46604">
        <ele>277</ele>
        <time>2009-05-19T14:23:54Z</time>
      </trkpt>
      <trkpt lat="44.47432" lon="2.46591">
        <ele>282</ele>
        <time>2009-05-19T14:24:03Z</time>
      </trkpt>
      <trkpt lat="44.47428" lon="2.46579">
        <ele>294</ele>
        <time>2009-05-19T14:24:15Z</time>
      </trkpt>
      <trkpt lat="44.47438" lon="2.46572">
        <ele>309</ele>
        <time>2009-05-19T14:24:24Z</time>
      </trkpt>
      <trkpt lat="44.47444" lon="2.46562">
        <ele>300</ele>
        <time>2009-05-19T14:24:32Z</time>
      </trkpt>
      <trkpt lat="44.47454" lon="2.46559">
        <ele>294</ele>
        <time>2009-05-19T14:24:41Z</time>
      </trkpt>
      <trkpt lat="44.47464" lon="2.46561">
        <ele>294</ele>
        <time>2009-05-19T14:24:50Z</time>
      </trkpt>
      <trkpt lat="44.47474" lon="2.46559">
        <ele>294</ele>
        <time>2009-05-19T14:25:00Z</time>
      </trkpt>
      <trkpt lat="44.47483" lon="2.46554">
        <ele>301</ele>
        <time>2009-05-19T14:25:07Z</time>
      </trkpt>
      <trkpt lat="44.47489" lon="2.46544">
        <ele>295</ele>
        <time>2009-05-19T14:25:55Z</time>
      </trkpt>
      <trkpt lat="44.47484" lon="2.46534">
        <ele>295</ele>
        <time>2009-05-19T14:26:04Z</time>
      </trkpt>
      <trkpt lat="44.47485" lon="2.46519">
        <ele>308</ele>
        <time>2009-05-19T14:26:17Z</time>
      </trkpt>
      <trkpt lat="44.47475" lon="2.46518">
        <ele>308</ele>
        <time>2009-05-19T14:26:32Z</time>
      </trkpt>
      <trkpt lat="44.47466" lon="2.46502">
        <ele>308</ele>
        <time>2009-05-19T14:26:44Z</time>
      </trkpt>
      <trkpt lat="44.4746" lon="2.46491">
        <ele>298</ele>
        <time>2009-05-19T14:26:54Z</time>
      </trkpt>
      <trkpt lat="44.4745" lon="2.46492">
        <ele>286</ele>
        <time>2009-05-19T14:27:00Z</time>
      </trkpt>
      <trkpt lat="44.47441" lon="2.46484">
        <ele>272</ele>
        <time>2009-05-19T14:27:09Z</time>
      </trkpt>
      <trkpt lat="44.47443" lon="2.46471">
        <ele>272</ele>
        <time>2009-05-19T14:27:20Z</time>
      </trkpt>
      <trkpt lat="44.47446" lon="2.46457">
        <ele>281</ele>
        <time>2009-05-19T14:27:28Z</time>
      </trkpt>
      <trkpt lat="44.4745" lon="2.46445">
        <ele>294</ele>
        <time>2009-05-19T14:27:36Z</time>
      </trkpt>
      <trkpt lat="44.47455" lon="2.46432">
        <ele>309</ele>
        <time>2009-05-19T14:27:45Z</time>
      </trkpt>
      <trkpt lat="44.47461" lon="2.46421">
        <ele>317</ele>
        <time>2009-05-19T14:27:55Z</time>
      </trkpt>
      <trkpt lat="44.47466" lon="2.4641">
        <ele>317</ele>
        <time>2009-05-19T14:28:04Z</time>
      </trkpt>
      <trkpt lat="44.47474" lon="2.46402">
        <ele>335</ele>
        <time>2009-05-19T14:28:16Z</time>
      </trkpt>
      <trkpt lat="44.47483" lon="2.46395">
        <ele>349</ele>
        <time>2009-05-19T14:28:24Z</time>
      </trkpt>
      <trkpt lat="44.47489" lon="2.46383">
        <ele>340</ele>
        <time>2009-05-19T14:28:37Z</time>
      </trkpt>
      <trkpt lat="44.47495" lon="2.46372">
        <ele>340</ele>
        <time>2009-05-19T14:28:47Z</time>
      </trkpt>
      <trkpt lat="44.47505" lon="2.46368">
        <ele>340</ele>
        <time>2009-05-19T14:28:57Z</time>
      </trkpt>
      <trkpt lat="44.47513" lon="2.46362">
        <ele>340</ele>
        <time>2009-05-19T14:29:08Z</time>
      </trkpt>
      <trkpt lat="44.47522" lon="2.46354">
        <ele>340</ele>
        <time>2009-05-19T14:29:16Z</time>
      </trkpt>
      <trkpt lat="44.47527" lon="2.46342">
        <ele>312</ele>
        <time>2009-05-19T14:29:36Z</time>
      </trkpt>
      <trkpt lat="44.4753" lon="2.4633">
        <ele>312</ele>
        <time>2009-05-19T14:29:45Z</time>
      </trkpt>
      <trkpt lat="44.47533" lon="2.46317">
        <ele>312</ele>
        <time>2009-05-19T14:29:55Z</time>
      </trkpt>
      <trkpt lat="44.4754" lon="2.46307">
        <ele>312</ele>
        <time>2009-05-19T14:30:05Z</time>
      </trkpt>
      <trkpt lat="44.47546" lon="2.46297">
        <ele>320</ele>
        <time>2009-05-19T14:30:15Z</time>
      </trkpt>
      <trkpt lat="44.47554" lon="2.46289">
        <ele>320</ele>
        <time>2009-05-19T14:30:26Z</time>
      </trkpt>
      <trkpt lat="44.47562" lon="2.4628">
        <ele>310</ele>
        <time>2009-05-19T14:30:43Z</time>
      </trkpt>
      <trkpt lat="44.47571" lon="2.46273">
        <ele>310</ele>
        <time>2009-05-19T14:30:52Z</time>
      </trkpt>
      <trkpt lat="44.4758" lon="2.46265">
        <ele>310</ele>
        <time>2009-05-19T14:31:01Z</time>
      </trkpt>
      <trkpt lat="44.47586" lon="2.46253">
        <ele>310</ele>
        <time>2009-05-19T14:31:09Z</time>
      </trkpt>
      <trkpt lat="44.4759" lon="2.46242">
        <ele>310</ele>
        <time>2009-05-19T14:31:18Z</time>
      </trkpt>
      <trkpt lat="44.47596" lon="2.46231">
        <ele>310</ele>
        <time>2009-05-19T14:31:28Z</time>
      </trkpt>
      <trkpt lat="44.47601" lon="2.46218">
        <ele>310</ele>
        <time>2009-05-19T14:31:37Z</time>
      </trkpt>
      <trkpt lat="44.47607" lon="2.46208">
        <ele>310</ele>
        <time>2009-05-19T14:31:47Z</time>
      </trkpt>
      <trkpt lat="44.47615" lon="2.462">
        <ele>310</ele>
        <time>2009-05-19T14:31:58Z</time>
      </trkpt>
      <trkpt lat="44.47623" lon="2.4619">
        <ele>310</ele>
        <time>2009-05-19T14:32:09Z</time>
      </trkpt>
      <trkpt lat="44.4763" lon="2.46181">
        <ele>318</ele>
        <time>2009-05-19T14:32:19Z</time>
      </trkpt>
      <trkpt lat="44.47639" lon="2.46173">
        <ele>318</ele>
        <time>2009-05-19T14:32:29Z</time>
      </trkpt>
      <trkpt lat="44.47646" lon="2.46164">
        <ele>325</ele>
        <time>2009-05-19T14:32:39Z</time>
      </trkpt>
      <trkpt lat="44.47653" lon="2.46156">
        <ele>325</ele>
        <time>2009-05-19T14:32:52Z</time>
      </trkpt>
      <trkpt lat="44.47646" lon="2.46147">
        <ele>290</ele>
        <time>2009-05-19T14:37:31Z</time>
      </trkpt>
      <trkpt lat="44.47656" lon="2.46147">
        <ele>290</ele>
        <time>2009-05-19T14:39:09Z</time>
      </trkpt>
      <trkpt lat="44.47662" lon="2.46135">
        <ele>299</ele>
        <time>2009-05-19T14:39:20Z</time>
      </trkpt>
      <trkpt lat="44.47666" lon="2.46123">
        <ele>299</ele>
        <time>2009-05-19T14:39:31Z</time>
      </trkpt>
      <trkpt lat="44.47671" lon="2.46111">
        <ele>299</ele>
        <time>2009-05-19T14:39:40Z</time>
      </trkpt>
      <trkpt lat="44.47671" lon="2.46097">
        <ele>299</ele>
        <time>2009-05-19T14:39:54Z</time>
      </trkpt>
      <trkpt lat="44.47668" lon="2.46085">
        <ele>299</ele>
        <time>2009-05-19T14:40:03Z</time>
      </trkpt>
      <trkpt lat="44.47665" lon="2.46072">
        <ele>291</ele>
        <time>2009-05-19T14:40:14Z</time>
      </trkpt>
      <trkpt lat="44.47668" lon="2.46059">
        <ele>291</ele>
        <time>2009-05-19T14:40:25Z</time>
      </trkpt>
    </trkseg>
  </trk>
</gpx>